Observation data for Clyde on 06/15/2019      Previous  Date  Next       Current Mesonet Observations  Soil Data  Daily Summary Page  Observations in Plain Language
KCL2 150500Z 18014G19KT 25/17 A2987 RMK A01 T02540169  RH  059%=      5-min Rain = 0
KCL2 150501Z 18013KT 25/17 A2987 RMK A01 T02540169  RH  059%=      5-min Rain = 0
KCL2 150502Z 18014KT 26/17 A2987 RMK A01 T02550170  RH  059%=      5-min Rain = 0
KCL2 150503Z 19013KT 26/17 A2987 RMK A01 T02550170  RH  059%=      5-min Rain = 0
KCL2 150504Z 18015KT 26/17 A2987 RMK A01 T02560170  RH  059%=      5-min Rain = 0
KCL2 150505Z 19015G20KT 26/17 A2987 RMK A01 T02560170  RH  059%=      5-min Rain = 0
KCL2 150506Z 18012KT 26/17 A2987 RMK A01 T02550170  RH  059%=      5-min Rain = 0
KCL2 150507Z 18014KT 26/17 A2987 RMK A01 T02550171  RH  060%=      5-min Rain = 0
KCL2 150508Z 18009KT 26/17 A2987 RMK A01 T02550171  RH  060%=      5-min Rain = 0
KCL2 150509Z 18011KT 25/17 A2987 RMK A01 T02540171  RH  060%=      5-min Rain = 0
KCL2 150510Z 18012KT 25/17 A2987 RMK A01 T02530171  RH  060%=      5-min Rain = 0
KCL2 150511Z 19010KT 25/17 A2987 RMK A01 T02530172  RH  061%=      5-min Rain = 0
KCL2 150512Z 19011KT 25/17 A2987 RMK A01 T02520172  RH  061%=      5-min Rain = 0
KCL2 150513Z 18014KT 25/17 A2987 RMK A01 T02520172  RH  061%=      5-min Rain = 0
KCL2 150514Z 18011KT 25/17 A2987 RMK A01 T02520172  RH  061%=      5-min Rain = 0
KCL2 150515Z 18013KT 25/17 A2987 RMK A01 T02520172  RH  061%=      5-min Rain = 0
KCL2 150516Z 18012G17KT 25/17 A2987 RMK A01 T02520173  RH  061%=      5-min Rain = 0
KCL2 150517Z 19011KT 25/17 A2987 RMK A01 T02520172  RH  061%=      5-min Rain = 0
KCL2 150518Z 18010KT 25/17 A2987 RMK A01 T02520172  RH  061%=      5-min Rain = 0
KCL2 150519Z 18013KT 25/17 A2987 RMK A01 T02520172  RH  061%=      5-min Rain = 0
KCL2 150520Z 18012KT 25/17 A2988 RMK A01 T02510172  RH  062%=      5-min Rain = 0
KCL2 150521Z 18012G17KT 25/17 A2987 RMK A01 T02510172  RH  062%=      5-min Rain = 0
KCL2 150522Z 18015KT 25/17 A2987 RMK A01 T02510172  RH  062%=      5-min Rain = 0
KCL2 150523Z 18014KT 25/17 A2987 RMK A01 T02510172  RH  062%=      5-min Rain = 0
KCL2 150524Z 18015KT 25/17 A2987 RMK A01 T02510172  RH  062%=      5-min Rain = 0
KCL2 150525Z 18012KT 25/17 A2987 RMK A01 T02510172  RH  062%=      5-min Rain = 0
KCL2 150526Z 18010KT 25/17 A2987 RMK A01 T02510173  RH  062%=      5-min Rain = 0
KCL2 150527Z 18012KT 25/17 A2987 RMK A01 T02500173  RH  062%=      5-min Rain = 0
KCL2 150528Z 18013KT 25/17 A2987 RMK A01 T02500173  RH  062%=      5-min Rain = 0
KCL2 150529Z 18014KT 25/17 A2987 RMK A01 T02490173  RH  063%=      5-min Rain = 0
KCL2 150530Z 18015KT 25/17 A2987 RMK A01 T02490173  RH  063%=      5-min Rain = 0
KCL2 150531Z 18013KT 25/17 A2987 RMK A01 T02490173  RH  063%=      5-min Rain = 0
KCL2 150532Z 18015KT 25/17 A2987 RMK A01 T02490173  RH  063%=      5-min Rain = 0
KCL2 150533Z 18012G17KT 25/17 A2987 RMK A01 T02490173  RH  063%=      5-min Rain = 0
KCL2 150534Z 18015G20KT 25/17 A2987 RMK A01 T02490173  RH  063%=      5-min Rain = 0
KCL2 150535Z 18012KT 25/17 A2987 RMK A01 T02490173  RH  063%=      5-min Rain = 0
KCL2 150536Z 18013G18KT 25/17 A2987 RMK A01 T02480174  RH  063%=      5-min Rain = 0
KCL2 150537Z 18013G18KT 25/17 A2987 RMK A01 T02480174  RH  063%=      5-min Rain = 0
KCL2 150538Z 18012G17KT 25/17 A2987 RMK A01 T02480174  RH  063%=      5-min Rain = 0
KCL2 150539Z 17015KT 25/17 A2987 RMK A01 T02480174  RH  064%=      5-min Rain = 0
KCL2 150540Z 18014KT 25/17 A2987 RMK A01 T02480174  RH  064%=      5-min Rain = 0
KCL2 150541Z 18013KT 25/17 A2987 RMK A01 T02480174  RH  064%=      5-min Rain = 0
KCL2 150542Z 18013KT 25/18 A2987 RMK A01 T02480175  RH  064%=      5-min Rain = 0
KCL2 150543Z 17014G19KT 25/18 A2987 RMK A01 T02470175  RH  064%=      5-min Rain = 0
KCL2 150544Z 18015KT 25/17 A2987 RMK A01 T02460174  RH  064%=      5-min Rain = 0
KCL2 150545Z 18013KT 25/17 A2987 RMK A01 T02460174  RH  064%=      5-min Rain = 0
KCL2 150546Z 18012G19KT 25/17 A2987 RMK A01 T02460174  RH  064%=      5-min Rain = 0
KCL2 150547Z 18016KT 25/18 A2987 RMK A01 T02450175  RH  065%=      5-min Rain = 0
KCL2 150548Z 18011KT 25/18 A2987 RMK A01 T02460175  RH  065%=      5-min Rain = 0
KCL2 150549Z 18014KT 25/18 A2987 RMK A01 T02450175  RH  065%=      5-min Rain = 0
KCL2 150550Z 18013G18KT 25/18 A2987 RMK A01 T02450175  RH  065%=      5-min Rain = 0
KCL2 150551Z 18015KT 25/18 A2987 RMK A01 T02450175  RH  065%=      5-min Rain = 0
KCL2 150552Z 18013G18KT 25/18 A2987 RMK A01 T02450175  RH  065%=      5-min Rain = 0
KCL2 150553Z 18015KT 25/18 A2987 RMK A01 T02450175  RH  065%=      5-min Rain = 0
KCL2 150554Z 18014KT 25/18 A2987 RMK A01 T02450175  RH  065%=      5-min Rain = 0
KCL2 150555Z 18015KT 25/18 A2987 RMK A01 T02450175  RH  065%=      5-min Rain = 0
KCL2 150556Z 18014KT 25/18 A2987 RMK A01 T02450176  RH  065%=      5-min Rain = 0
KCL2 150557Z 18015KT 25/18 A2987 RMK A01 T02450176  RH  065%=      5-min Rain = 0
KCL2 150558Z 18015KT 25/18 A2987 RMK A01 T02450176  RH  065%=      5-min Rain = 0
KCL2 150559Z 18014KT 25/18 A2987 RMK A01 T02450176  RH  065%=      5-min Rain = 0
KCL2 150600Z 18016KT 25/18 A2987 RMK A01 T02450176  RH  065%=      5-min Rain = 0
KCL2 150601Z 18013KT 25/18 A2987 RMK A01 T02450176  RH  065%=      5-min Rain = 0
KCL2 150602Z 18014KT 25/18 A2987 RMK A01 T02450176  RH  065%=      5-min Rain = 0
KCL2 150603Z 18015KT 25/18 A2987 RMK A01 T02450176  RH  065%=      5-min Rain = 0
KCL2 150604Z 18015G21KT 25/18 A2987 RMK A01 T02450176  RH  065%=      5-min Rain = 0
KCL2 150605Z 18014KT 25/18 A2987 RMK A01 T02450176  RH  065%=      5-min Rain = 0
KCL2 150606Z 19013KT 25/18 A2987 RMK A01 T02450176  RH  066%=      5-min Rain = 0
KCL2 150607Z 18012KT 24/18 A2987 RMK A01 T02440176  RH  066%=      5-min Rain = 0
KCL2 150608Z 18014G19KT 24/18 A2987 RMK A01 T02430177  RH  066%=      5-min Rain = 0
KCL2 150609Z 19013G18KT 24/18 A2987 RMK A01 T02430176  RH  066%=      5-min Rain = 0
KCL2 150610Z 18016KT 24/18 A2987 RMK A01 T02430177  RH  067%=      5-min Rain = 0
KCL2 150611Z 18016KT 24/18 A2986 RMK A01 T02430177  RH  066%=      5-min Rain = 0
KCL2 150612Z 18016KT 24/18 A2986 RMK A01 T02430177  RH  066%=      5-min Rain = 0
KCL2 150613Z 18017KT 24/18 A2986 RMK A01 T02440177  RH  066%=      5-min Rain = 0
KCL2 150614Z 18014KT 24/18 A2986 RMK A01 T02440177  RH  066%=      5-min Rain = 0
KCL2 150615Z 18013KT 24/18 A2986 RMK A01 T02440178  RH  066%=      5-min Rain = 0
KCL2 150616Z 18015KT 24/18 A2986 RMK A01 T02430177  RH  067%=      5-min Rain = 0
KCL2 150617Z 18014KT 24/18 A2986 RMK A01 T02420178  RH  067%=      5-min Rain = 0
KCL2 150618Z 18014KT 24/18 A2986 RMK A01 T02420178  RH  067%=      5-min Rain = 0
KCL2 150619Z 18016KT 24/18 A2986 RMK A01 T02420178  RH  067%=      5-min Rain = 0
KCL2 150620Z 18019KT 24/18 A2986 RMK A01 T02420178  RH  067%=      5-min Rain = 0
KCL2 150621Z 18015KT 24/18 A2986 RMK A01 T02430178  RH  067%=      5-min Rain = 0
KCL2 150622Z 18015KT 24/18 A2986 RMK A01 T02430178  RH  067%=      5-min Rain = 0
KCL2 150623Z 18017KT 24/18 A2986 RMK A01 T02430178  RH  067%=      5-min Rain = 0
KCL2 150624Z 18016G21KT 24/18 A2986 RMK A01 T02430178  RH  067%=      5-min Rain = 0
KCL2 150625Z 18014KT 24/18 A2986 RMK A01 T02440179  RH  067%=      5-min Rain = 0
KCL2 150626Z 18017KT 24/18 A2986 RMK A01 T02430178  RH  067%=      5-min Rain = 0
KCL2 150627Z 18017G23KT 24/18 A2986 RMK A01 T02430178  RH  067%=      5-min Rain = 0
KCL2 150628Z 18015KT 24/18 A2986 RMK A01 T02430178  RH  067%=      5-min Rain = 0
KCL2 150629Z 18014KT 24/18 A2986 RMK A01 T02440179  RH  067%=      5-min Rain = 0
KCL2 150630Z 18016KT 24/18 A2986 RMK A01 T02430179  RH  067%=      5-min Rain = 0
KCL2 150631Z 18013KT 24/18 A2986 RMK A01 T02430179  RH  067%=      5-min Rain = 0
KCL2 150632Z 18014KT 24/18 A2986 RMK A01 T02430179  RH  067%=      5-min Rain = 0
KCL2 150633Z 19014KT 24/18 A2986 RMK A01 T02420179  RH  068%=      5-min Rain = 0
KCL2 150634Z 18013KT 24/18 A2986 RMK A01 T02420179  RH  068%=      5-min Rain = 0
KCL2 150635Z 18013G19KT 24/18 A2986 RMK A01 T02420179  RH  068%=      5-min Rain = 0
KCL2 150636Z 18017KT 24/18 A2986 RMK A01 T02420179  RH  068%=      5-min Rain = 0
KCL2 150637Z 18016G22KT 24/18 A2986 RMK A01 T02420179  RH  068%=      5-min Rain = 0
KCL2 150638Z 18013KT 24/18 A2986 RMK A01 T02420180  RH  068%=      5-min Rain = 0
KCL2 150639Z 18013KT 24/18 A2986 RMK A01 T02410179  RH  068%=      5-min Rain = 0
KCL2 150640Z 18017KT 24/18 A2986 RMK A01 T02410180  RH  068%=      5-min Rain = 0
KCL2 150641Z 18014KT 24/18 A2986 RMK A01 T02410180  RH  068%=      5-min Rain = 0
KCL2 150642Z 18014G19KT 24/18 A2986 RMK A01 T02410180  RH  069%=      5-min Rain = 0
KCL2 150643Z 18015KT 24/18 A2986 RMK A01 T02410180  RH  069%=      5-min Rain = 0
KCL2 150644Z 18016KT 24/18 A2986 RMK A01 T02410180  RH  069%=      5-min Rain = 0
KCL2 150645Z 19015KT 24/18 A2986 RMK A01 T02410180  RH  069%=      5-min Rain = 0
KCL2 150646Z 18012KT 24/18 A2986 RMK A01 T02410181  RH  069%=      5-min Rain = 0
KCL2 150647Z 19013KT 24/18 A2986 RMK A01 T02400181  RH  069%=      5-min Rain = 0
KCL2 150648Z 18012KT 24/18 A2986 RMK A01 T02400181  RH  069%=      5-min Rain = 0
KCL2 150649Z 18011KT 24/18 A2986 RMK A01 T02400181  RH  069%=      5-min Rain = 0
KCL2 150650Z 18015G20KT 24/18 A2986 RMK A01 T02390181  RH  070%=      5-min Rain = 0
KCL2 150651Z 18015KT 24/18 A2986 RMK A01 T02400181  RH  070%=      5-min Rain = 0
KCL2 150652Z 19013KT 24/18 A2986 RMK A01 T02400181  RH  069%=      5-min Rain = 0
KCL2 150653Z 19014KT 24/18 A2986 RMK A01 T02400181  RH  070%=      5-min Rain = 0
KCL2 150654Z 19014KT 24/18 A2986 RMK A01 T02400181  RH  070%=      5-min Rain = 0
KCL2 150655Z 18016KT 24/18 A2986 RMK A01 T02400181  RH  070%=      5-min Rain = 0
KCL2 150656Z 18014G20KT 24/18 A2986 RMK A01 T02400181  RH  069%=      5-min Rain = 0
KCL2 150657Z 18015KT 24/18 A2986 RMK A01 T02400181  RH  070%=      5-min Rain = 0
KCL2 150658Z 18015KT 24/18 A2986 RMK A01 T02400182  RH  070%=      5-min Rain = 0
KCL2 150659Z 19015KT 24/18 A2986 RMK A01 T02400182  RH  070%=      5-min Rain = 0
KCL2 150700Z 18015KT 24/18 A2986 RMK A01 T02400182  RH  070%=      5-min Rain = 0
KCL2 150701Z 18015G22KT 24/18 A2986 RMK A01 T02410182  RH  070%=      5-min Rain = 0
KCL2 150702Z 18015KT 24/18 A2986 RMK A01 T02410182  RH  070%=      5-min Rain = 0
KCL2 150703Z 18015G20KT 24/18 A2986 RMK A01 T02410182  RH  070%=      5-min Rain = 0
KCL2 150704Z 18016KT 24/18 A2986 RMK A01 T02400182  RH  070%=      5-min Rain = 0
KCL2 150705Z 18016G21KT 24/18 A2986 RMK A01 T02400182  RH  070%=      5-min Rain = 0
KCL2 150706Z 18018KT 24/18 A2986 RMK A01 T02400182  RH  070%=      5-min Rain = 0
KCL2 150707Z 18013KT 24/18 A2986 RMK A01 T02400182  RH  070%=      5-min Rain = 0
KCL2 150708Z 18013G19KT 24/18 A2986 RMK A01 T02400183  RH  070%=      5-min Rain = 0
KCL2 150709Z 18015KT 24/18 A2986 RMK A01 T02390182  RH  070%=      5-min Rain = 0
KCL2 150710Z 18015G20KT 24/18 A2985 RMK A01 T02390182  RH  070%=      5-min Rain = 0
KCL2 150711Z 18014KT 24/18 A2985 RMK A01 T02390182  RH  070%=      5-min Rain = 0
KCL2 150712Z 18013KT 24/18 A2985 RMK A01 T02390183  RH  071%=      5-min Rain = 0
KCL2 150713Z 18015KT 24/18 A2985 RMK A01 T02390183  RH  071%=      5-min Rain = 0
KCL2 150714Z 18013KT 24/18 A2985 RMK A01 T02390183  RH  071%=      5-min Rain = 0
KCL2 150715Z 19015KT 24/18 A2985 RMK A01 T02380182  RH  071%=      5-min Rain = 0
KCL2 150716Z 18015KT 24/18 A2985 RMK A01 T02380183  RH  071%=      5-min Rain = 0
KCL2 150717Z 19013KT 24/18 A2985 RMK A01 T02380183  RH  071%=      5-min Rain = 0
KCL2 150718Z 18017KT 24/18 A2985 RMK A01 T02380183  RH  071%=      5-min Rain = 0
KCL2 150719Z 18012KT 24/18 A2985 RMK A01 T02380183  RH  071%=      5-min Rain = 0
KCL2 150720Z 18014G21KT 24/18 A2985 RMK A01 T02380183  RH  071%=      5-min Rain = 0
KCL2 150721Z 18014G19KT 24/18 A2985 RMK A01 T02380183  RH  071%=      5-min Rain = 0
KCL2 150722Z 19013G18KT 24/18 A2985 RMK A01 T02380183  RH  071%=      5-min Rain = 0
KCL2 150723Z 18014KT 24/18 A2985 RMK A01 T02380183  RH  071%=      5-min Rain = 0
KCL2 150724Z 18012KT 24/18 A2985 RMK A01 T02380183  RH  072%=      5-min Rain = 0
KCL2 150725Z 18013KT 24/18 A2985 RMK A01 T02370183  RH  072%=      5-min Rain = 0
KCL2 150726Z 19013G19KT 24/18 A2985 RMK A01 T02370183  RH  072%=      5-min Rain = 0
KCL2 150727Z 18015KT 24/18 A2985 RMK A01 T02360183  RH  072%=      5-min Rain = 0
KCL2 150728Z 19014G19KT 24/18 A2985 RMK A01 T02370184  RH  072%=      5-min Rain = 0
KCL2 150729Z 18011KT 24/18 A2985 RMK A01 T02370184  RH  072%=      5-min Rain = 0
KCL2 150730Z 18013KT 24/18 A2985 RMK A01 T02360183  RH  072%=      5-min Rain = 0
KCL2 150731Z 19013G19KT 24/18 A2986 RMK A01 T02360184  RH  072%=      5-min Rain = 0
KCL2 150732Z 18015KT 24/18 A2985 RMK A01 T02360184  RH  072%=      5-min Rain = 0
KCL2 150733Z 18013KT 24/18 A2985 RMK A01 T02360184  RH  072%=      5-min Rain = 0
KCL2 150734Z 18014KT 24/18 A2985 RMK A01 T02360184  RH  072%=      5-min Rain = 0
KCL2 150735Z 18013G18KT 24/18 A2985 RMK A01 T02360184  RH  073%=      5-min Rain = 0
KCL2 150736Z 18013KT 24/18 A2985 RMK A01 T02360184  RH  073%=      5-min Rain = 0
KCL2 150737Z 18013KT 24/18 A2985 RMK A01 T02360184  RH  073%=      5-min Rain = 0
KCL2 150738Z 18015KT 24/18 A2986 RMK A01 T02360184  RH  073%=      5-min Rain = 0
KCL2 150739Z 18014KT 24/18 A2985 RMK A01 T02350184  RH  073%=      5-min Rain = 0
KCL2 150740Z 18013KT 24/18 A2985 RMK A01 T02350184  RH  073%=      5-min Rain = 0
KCL2 150741Z 19014KT 24/18 A2985 RMK A01 T02350184  RH  073%=      5-min Rain = 0
KCL2 150742Z 18014KT 24/18 A2985 RMK A01 T02350184  RH  073%=      5-min Rain = 0
KCL2 150743Z 18014KT 24/18 A2985 RMK A01 T02350184  RH  073%=      5-min Rain = 0
KCL2 150744Z 18014G19KT 24/19 A2985 RMK A01 T02350185  RH  073%=      5-min Rain = 0
KCL2 150745Z 18015KT 24/18 A2985 RMK A01 T02350184  RH  073%=      5-min Rain = 0
KCL2 150746Z 18014KT 24/18 A2985 RMK A01 T02350184  RH  073%=      5-min Rain = 0
KCL2 150747Z 18015KT 24/19 A2985 RMK A01 T02350185  RH  073%=      5-min Rain = 0
KCL2 150748Z 18013KT 24/19 A2985 RMK A01 T02350185  RH  074%=      5-min Rain = 0
KCL2 150749Z 18013G18KT 23/19 A2985 RMK A01 T02340185  RH  074%=      5-min Rain = 0
KCL2 150750Z 18016KT 23/19 A2985 RMK A01 T02340185  RH  074%=      5-min Rain = 0
KCL2 150751Z 18016KT 24/19 A2985 RMK A01 T02350185  RH  074%=      5-min Rain = 0
KCL2 150752Z 18015KT 23/19 A2985 RMK A01 T02340185  RH  074%=      5-min Rain = 0
KCL2 150753Z 18016G21KT 23/19 A2985 RMK A01 T02340185  RH  074%=      5-min Rain = 0
KCL2 150754Z 18016G21KT 23/19 A2985 RMK A01 T02340185  RH  074%=      5-min Rain = 0
KCL2 150755Z 19014G21KT 23/19 A2985 RMK A01 T02340185  RH  074%=      5-min Rain = 0
KCL2 150756Z 18016G21KT 23/19 A2984 RMK A01 T02340185  RH  074%=      5-min Rain = 0
KCL2 150757Z 18017KT 23/19 A2984 RMK A01 T02340185  RH  074%=      5-min Rain = 0
KCL2 150758Z 18015G20KT 23/19 A2984 RMK A01 T02340185  RH  074%=      5-min Rain = 0
KCL2 150759Z 18015KT 23/19 A2984 RMK A01 T02340185  RH  074%=      5-min Rain = 0
KCL2 150800Z 18013KT 23/19 A2984 RMK A01 T02340185  RH  074%=      5-min Rain = 0
KCL2 150801Z 18014KT 23/19 A2984 RMK A01 T02340186  RH  074%=      5-min Rain = 0
KCL2 150802Z 18015G20KT 23/19 A2984 RMK A01 T02340186  RH  074%=      5-min Rain = 0
KCL2 150803Z 19016KT 23/19 A2984 RMK A01 T02330185  RH  074%=      5-min Rain = 0
KCL2 150804Z 18017G22KT 23/19 A2984 RMK A01 T02340186  RH  074%=      5-min Rain = 0
KCL2 150805Z 18017KT 23/19 A2984 RMK A01 T02340186  RH  074%=      5-min Rain = 0
KCL2 150806Z 18018KT 23/19 A2984 RMK A01 T02340186  RH  074%=      5-min Rain = 0
KCL2 150807Z 18014G20KT 23/19 A2984 RMK A01 T02340186  RH  074%=      5-min Rain = 0
KCL2 150808Z 18017KT 23/19 A2984 RMK A01 T02340186  RH  074%=      5-min Rain = 0
KCL2 150809Z 18018KT 23/19 A2984 RMK A01 T02340186  RH  074%=      5-min Rain = 0
KCL2 150810Z 18018G24KT 23/19 A2984 RMK A01 T02340186  RH  074%=      5-min Rain = 0
KCL2 150811Z 18015KT 23/19 A2984 RMK A01 T02340186  RH  075%=      5-min Rain = 0
KCL2 150812Z 18015KT 23/19 A2984 RMK A01 T02340186  RH  075%=      5-min Rain = 0
KCL2 150813Z 18016KT 23/19 A2984 RMK A01 T02330187  RH  075%=      5-min Rain = 0
KCL2 150814Z 18017G22KT 23/19 A2984 RMK A01 T02330186  RH  075%=      5-min Rain = 0
KCL2 150815Z 18015G20KT 23/19 A2984 RMK A01 T02330186  RH  075%=      5-min Rain = 0
KCL2 150816Z 19016KT 23/19 A2984 RMK A01 T02330187  RH  075%=      5-min Rain = 0
KCL2 150817Z 18016KT 23/19 A2984 RMK A01 T02330187  RH  075%=      5-min Rain = 0
KCL2 150818Z 18018G23KT 23/19 A2984 RMK A01 T02330187  RH  075%=      5-min Rain = 0
KCL2 150819Z 19016KT 23/19 A2984 RMK A01 T02330187  RH  075%=      5-min Rain = 0
KCL2 150820Z 18017G22KT 23/19 A2984 RMK A01 T02330187  RH  075%=      5-min Rain = 0
KCL2 150821Z 18015KT 23/19 A2984 RMK A01 T02330187  RH  075%=      5-min Rain = 0
KCL2 150822Z 19017KT 23/19 A2984 RMK A01 T02330187  RH  075%=      5-min Rain = 0
KCL2 150823Z 18014KT 23/19 A2984 RMK A01 T02330187  RH  075%=      5-min Rain = 0
KCL2 150824Z 18014KT 23/19 A2984 RMK A01 T02320187  RH  076%=      5-min Rain = 0
KCL2 150825Z 18014KT 23/19 A2984 RMK A01 T02320187  RH  076%=      5-min Rain = 0
KCL2 150826Z 18015KT 23/19 A2984 RMK A01 T02310187  RH  076%=      5-min Rain = 0
KCL2 150827Z 18016KT 23/19 A2984 RMK A01 T02310187  RH  076%=      5-min Rain = 0
KCL2 150828Z 18014KT 23/19 A2984 RMK A01 T02320187  RH  076%=      5-min Rain = 0
KCL2 150829Z 18014KT 23/19 A2984 RMK A01 T02320188  RH  076%=      5-min Rain = 0
KCL2 150830Z 19014KT 23/19 A2984 RMK A01 T02320188  RH  076%=      5-min Rain = 0
KCL2 150831Z 18015KT 23/19 A2983 RMK A01 T02310187  RH  076%=      5-min Rain = 0
KCL2 150832Z 18017G23KT 23/19 A2983 RMK A01 T02310188  RH  076%=      5-min Rain = 0
KCL2 150833Z 18013KT 23/19 A2983 RMK A01 T02310188  RH  076%=      5-min Rain = 0
KCL2 150834Z 18014KT 23/19 A2984 RMK A01 T02310188  RH  077%=      5-min Rain = 0
KCL2 150835Z 19016KT 23/19 A2983 RMK A01 T02310188  RH  077%=      5-min Rain = 0
KCL2 150836Z 19016KT 23/19 A2983 RMK A01 T02310188  RH  077%=      5-min Rain = 0
KCL2 150837Z 18015KT 23/19 A2983 RMK A01 T02310188  RH  077%=      5-min Rain = 0
KCL2 150838Z 18017KT 23/19 A2983 RMK A01 T02310188  RH  077%=      5-min Rain = 0
KCL2 150839Z 19016KT 23/19 A2983 RMK A01 T02310188  RH  077%=      5-min Rain = 0
KCL2 150840Z 18014KT 23/19 A2983 RMK A01 T02310188  RH  077%=      5-min Rain = 0
KCL2 150841Z 18014G20KT 23/19 A2983 RMK A01 T02310189  RH  077%=      5-min Rain = 0
KCL2 150842Z 18017KT 23/19 A2983 RMK A01 T02300189  RH  077%=      5-min Rain = 0
KCL2 150843Z 18014KT 23/19 A2983 RMK A01 T02300189  RH  077%=      5-min Rain = 0
KCL2 150844Z 18016KT 23/19 A2983 RMK A01 T02300189  RH  077%=      5-min Rain = 0
KCL2 150845Z 18015KT 23/19 A2983 RMK A01 T02300189  RH  077%=      5-min Rain = 0
KCL2 150846Z 18014KT 23/19 A2983 RMK A01 T02300189  RH  077%=      5-min Rain = 0
KCL2 150847Z 18015KT 23/19 A2983 RMK A01 T02300189  RH  077%=      5-min Rain = 0
KCL2 150848Z 18015KT 23/19 A2983 RMK A01 T02300189  RH  078%=      5-min Rain = 0
KCL2 150849Z 18014G19KT 23/19 A2983 RMK A01 T02300189  RH  078%=      5-min Rain = 0
KCL2 150850Z 18017KT 23/19 A2983 RMK A01 T02290189  RH  078%=      5-min Rain = 0
KCL2 150851Z 18014KT 23/19 A2983 RMK A01 T02300189  RH  078%=      5-min Rain = 0
KCL2 150852Z 18015G20KT 23/19 A2983 RMK A01 T02300189  RH  078%=      5-min Rain = 0
KCL2 150853Z 18016KT 23/19 A2983 RMK A01 T02300190  RH  078%=      5-min Rain = 0
KCL2 150854Z 18015KT 23/19 A2982 RMK A01 T02300190  RH  078%=      5-min Rain = 0
KCL2 150855Z 19015KT 23/19 A2982 RMK A01 T02300189  RH  078%=      5-min Rain = 0
KCL2 150856Z 18014KT 23/19 A2982 RMK A01 T02300189  RH  078%=      5-min Rain = 0
KCL2 150857Z 18016G21KT 23/19 A2982 RMK A01 T02300190  RH  078%=      5-min Rain = 0
KCL2 150858Z 19015KT 23/19 A2982 RMK A01 T02300190  RH  078%=      5-min Rain = 0
KCL2 150859Z 18016KT 23/19 A2983 RMK A01 T02300190  RH  078%=      5-min Rain = 0
KCL2 150900Z 18015KT 23/19 A2983 RMK A01 T02300190  RH  078%=      5-min Rain = 0
KCL2 150901Z 18015G20KT 23/19 A2983 RMK A01 T02300190  RH  078%=      5-min Rain = 0
KCL2 150902Z 18016KT 23/19 A2983 RMK A01 T02290190  RH  079%=      5-min Rain = 0
KCL2 150903Z 18016G22KT 23/19 A2983 RMK A01 T02290190  RH  079%=      5-min Rain = 0
KCL2 150904Z 18015G20KT 23/19 A2982 RMK A01 T02290190  RH  079%=      5-min Rain = 0
KCL2 150905Z 18015G23KT 23/19 A2982 RMK A01 T02290190  RH  079%=      5-min Rain = 0
KCL2 150906Z 18017KT 23/19 A2982 RMK A01 T02280190  RH  079%=      5-min Rain = 0
KCL2 150907Z 18017G22KT 23/19 A2982 RMK A01 T02280190  RH  079%=      5-min Rain = 0
KCL2 150908Z 17015KT 23/19 A2982 RMK A01 T02280190  RH  079%=      5-min Rain = 0
KCL2 150909Z 18016KT 23/19 A2982 RMK A01 T02280190  RH  079%=      5-min Rain = 0
KCL2 150910Z 18016KT 23/19 A2982 RMK A01 T02280190  RH  079%=      5-min Rain = 0
KCL2 150911Z 19017KT 23/19 A2982 RMK A01 T02280190  RH  079%=      5-min Rain = 0
KCL2 150912Z 18014KT 23/19 A2982 RMK A01 T02280190  RH  079%=      5-min Rain = 0
KCL2 150913Z 18016G21KT 23/19 A2982 RMK A01 T02280190  RH  079%=      5-min Rain = 0
KCL2 150914Z 18014KT 23/19 A2982 RMK A01 T02280191  RH  080%=      5-min Rain = 0
KCL2 150915Z 18013G18KT 23/19 A2982 RMK A01 T02270191  RH  080%=      5-min Rain = 0
KCL2 150916Z 18017KT 23/19 A2982 RMK A01 T02270191  RH  080%=      5-min Rain = 0
KCL2 150917Z 18015KT 23/19 A2982 RMK A01 T02270191  RH  080%=      5-min Rain = 0
KCL2 150918Z 18015KT 23/19 A2982 RMK A01 T02260191  RH  080%=      5-min Rain = 0
KCL2 150919Z 18017G22KT 23/19 A2982 RMK A01 T02260191  RH  080%=      5-min Rain = 0
KCL2 150920Z 18016KT 23/19 A2982 RMK A01 T02270191  RH  080%=      5-min Rain = 0
KCL2 150921Z 18018G24KT 23/19 A2982 RMK A01 T02270191  RH  080%=      5-min Rain = 0
KCL2 150922Z 18019G24KT 23/19 A2982 RMK A01 T02270191  RH  080%=      5-min Rain = 0
KCL2 150923Z 18016KT 23/19 A2982 RMK A01 T02280191  RH  080%=      5-min Rain = 0
KCL2 150924Z 18017G22KT 23/19 A2982 RMK A01 T02270191  RH  080%=      5-min Rain = 0
KCL2 150925Z 18016KT 23/19 A2982 RMK A01 T02270191  RH  080%=      5-min Rain = 0
KCL2 150926Z 18018G23KT 23/19 A2982 RMK A01 T02270191  RH  080%=      5-min Rain = 0
KCL2 150927Z 18017G24KT 23/19 A2982 RMK A01 T02270191  RH  080%=      5-min Rain = 0
KCL2 150928Z 18019KT 23/19 A2982 RMK A01 T02270191  RH  080%=      5-min Rain = 0
KCL2 150929Z 18016KT 23/19 A2982 RMK A01 T02270192  RH  080%=      5-min Rain = 0
KCL2 150930Z 18018KT 23/19 A2982 RMK A01 T02270192  RH  080%=      5-min Rain = 0
KCL2 150931Z 18016G24KT 23/19 A2982 RMK A01 T02270192  RH  080%=      5-min Rain = 0
KCL2 150932Z 18015KT 23/19 A2982 RMK A01 T02270192  RH  081%=      5-min Rain = 0
KCL2 150933Z 18015G20KT 23/19 A2982 RMK A01 T02270192  RH  081%=      5-min Rain = 0
KCL2 150934Z 18018KT 23/19 A2982 RMK A01 T02270192  RH  081%=      5-min Rain = 0
KCL2 150935Z 18015G20KT 23/19 A2982 RMK A01 T02260192  RH  081%=      5-min Rain = 0
KCL2 150936Z 18016G21KT 23/19 A2982 RMK A01 T02260192  RH  081%=      5-min Rain = 0
KCL2 150937Z 18016G21KT 23/19 A2982 RMK A01 T02260192  RH  081%=      5-min Rain = 0
KCL2 150938Z 18015G20KT 23/19 A2982 RMK A01 T02260192  RH  081%=      5-min Rain = 0
KCL2 150939Z 18017KT 23/19 A2982 RMK A01 T02260192  RH  081%=      5-min Rain = 0
KCL2 150940Z 18017KT 23/19 A2982 RMK A01 T02250192  RH  082%=      5-min Rain = 0
KCL2 150941Z 18017G22KT 23/19 A2982 RMK A01 T02250192  RH  082%=      5-min Rain = 0
KCL2 150942Z 18015G21KT 23/19 A2982 RMK A01 T02250192  RH  082%=      5-min Rain = 0
KCL2 150943Z 18019KT 23/19 A2982 RMK A01 T02250192  RH  082%=      5-min Rain = 0
KCL2 150944Z 18020KT 23/19 A2981 RMK A01 T02250192  RH  082%=      5-min Rain = 0
KCL2 150945Z 19017KT 23/19 A2982 RMK A01 T02250192  RH  082%=      5-min Rain = 0
KCL2 150946Z 18014KT 23/19 A2982 RMK A01 T02250193  RH  082%=      5-min Rain = 0
KCL2 150947Z 18014KT 22/19 A2982 RMK A01 T02240192  RH  082%=      5-min Rain = 0
KCL2 150948Z 18015KT 22/19 A2982 RMK A01 T02240193  RH  082%=      5-min Rain = 0
KCL2 150949Z 18018G26KT 22/19 A2982 RMK A01 T02240192  RH  083%=      5-min Rain = 0
KCL2 150950Z 19016KT 22/19 A2982 RMK A01 T02240192  RH  082%=      5-min Rain = 0
KCL2 150951Z 18017KT 22/19 A2982 RMK A01 T02240193  RH  083%=      5-min Rain = 0
KCL2 150952Z 18016KT 22/19 A2982 RMK A01 T02240193  RH  083%=      5-min Rain = 0
KCL2 150953Z 18014KT 22/19 A2982 RMK A01 T02240193  RH  083%=      5-min Rain = 0
KCL2 150954Z 18016KT 22/19 A2982 RMK A01 T02240193  RH  083%=      5-min Rain = 0
KCL2 150955Z 18015KT 22/19 A2982 RMK A01 T02230193  RH  083%=      5-min Rain = 0
KCL2 150956Z 18018KT 22/19 A2982 RMK A01 T02230193  RH  083%=      5-min Rain = 0
KCL2 150957Z 18017G22KT 22/19 A2982 RMK A01 T02230193  RH  083%=      5-min Rain = 0
KCL2 150958Z 18013KT 22/19 A2982 RMK A01 T02230193  RH  083%=      5-min Rain = 0
KCL2 150959Z 18017KT 22/19 A2982 RMK A01 T02230193  RH  083%=      5-min Rain = 0
KCL2 151000Z 18016G21KT 22/19 A2982 RMK A01 T02230194  RH  084%=      5-min Rain = 0
KCL2 151001Z 18018G23KT 22/19 A2982 RMK A01 T02230194  RH  084%=      5-min Rain = 0
KCL2 151002Z 18018KT 22/19 A2982 RMK A01 T02230194  RH  083%=      5-min Rain = 0
KCL2 151003Z 18016G22KT 22/19 A2982 RMK A01 T02230194  RH  083%=      5-min Rain = 0
KCL2 151004Z 18015KT 22/19 A2982 RMK A01 T02230194  RH  084%=      5-min Rain = 0
KCL2 151005Z 18015KT 22/19 A2982 RMK A01 T02220194  RH  084%=      5-min Rain = 0
KCL2 151006Z 18017KT 22/19 A2982 RMK A01 T02220194  RH  084%=      5-min Rain = 0
KCL2 151007Z 18015KT 22/19 A2982 RMK A01 T02220194  RH  084%=      5-min Rain = 0
KCL2 151008Z 18015KT 22/19 A2981 RMK A01 T02220194  RH  084%=      5-min Rain = 0
KCL2 151009Z 18016G23KT 22/19 A2981 RMK A01 T02220194  RH  084%=      5-min Rain = 0
KCL2 151010Z 18015G20KT 22/19 A2981 RMK A01 T02220194  RH  084%=      5-min Rain = 0
KCL2 151011Z 18017G22KT 22/19 A2981 RMK A01 T02220194  RH  084%=      5-min Rain = 0
KCL2 151012Z 18015G20KT 22/19 A2981 RMK A01 T02220194  RH  084%=      5-min Rain = 0
KCL2 151013Z 18017KT 22/19 A2982 RMK A01 T02220194  RH  084%=      5-min Rain = 0
KCL2 151014Z 18018G23KT 22/20 A2982 RMK A01 T02220195  RH  085%=      5-min Rain = 0
KCL2 151015Z 18016KT 22/20 A2982 RMK A01 T02220195  RH  085%=      5-min Rain = 0
KCL2 151016Z 18016KT 22/20 A2982 RMK A01 T02220195  RH  085%=      5-min Rain = 0
KCL2 151017Z 18015KT 22/20 A2982 RMK A01 T02220195  RH  085%=      5-min Rain = 0
KCL2 151018Z 18017KT 22/20 A2982 RMK A01 T02210195  RH  085%=      5-min Rain = 0
KCL2 151019Z 18015KT 22/20 A2982 RMK A01 T02210195  RH  085%=      5-min Rain = 0
KCL2 151020Z 18015G22KT 22/20 A2981 RMK A01 T02210195  RH  085%=      5-min Rain = 0
KCL2 151021Z 18015KT 22/20 A2982 RMK A01 T02210195  RH  085%=      5-min Rain = 0
KCL2 151022Z 18016G24KT 22/20 A2981 RMK A01 T02210195  RH  085%=      5-min Rain = 0
KCL2 151023Z 18014KT 22/20 A2982 RMK A01 T02210195  RH  085%=      5-min Rain = 0
KCL2 151024Z 18015G20KT 22/20 A2981 RMK A01 T02210195  RH  085%=      5-min Rain = 0
KCL2 151025Z 18017G22KT 22/20 A2982 RMK A01 T02210195  RH  085%=      5-min Rain = 0
KCL2 151026Z 18016KT 22/20 A2982 RMK A01 T02210195  RH  086%=      5-min Rain = 0
KCL2 151027Z 18016KT 22/20 A2981 RMK A01 T02210195  RH  086%=      5-min Rain = 0
KCL2 151028Z 18018KT 22/20 A2981 RMK A01 T02200195  RH  086%=      5-min Rain = 0
KCL2 151029Z 18017KT 22/20 A2981 RMK A01 T02210195  RH  086%=      5-min Rain = 0
KCL2 151030Z 18018KT 22/20 A2982 RMK A01 T02210196  RH  086%=      5-min Rain = 0
KCL2 151031Z 17018G23KT 22/20 A2981 RMK A01 T02200195  RH  086%=      5-min Rain = 0
KCL2 151032Z 18019G25KT 22/20 A2981 RMK A01 T02200196  RH  086%=      5-min Rain = 0
KCL2 151033Z 18017G25KT 22/20 A2981 RMK A01 T02210196  RH  086%=      5-min Rain = 0
KCL2 151034Z 18016KT 22/20 A2981 RMK A01 T02210196  RH  086%=      5-min Rain = 0
KCL2 151035Z 18016G21KT 22/20 A2981 RMK A01 T02200196  RH  086%=      5-min Rain = 0
KCL2 151036Z 18015G22KT 22/20 A2981 RMK A01 T02200196  RH  086%=      5-min Rain = 0
KCL2 151037Z 18019G24KT 22/20 A2981 RMK A01 T02200196  RH  086%=      5-min Rain = 0
KCL2 151038Z 18015KT 22/20 A2981 RMK A01 T02200196  RH  086%=      5-min Rain = 0
KCL2 151039Z 18019KT 22/20 A2981 RMK A01 T02200196  RH  086%=      5-min Rain = 0
KCL2 151040Z 18016KT 22/20 A2981 RMK A01 T02200196  RH  086%=      5-min Rain = 0
KCL2 151041Z 18017KT 22/20 A2981 RMK A01 T02200196  RH  086%=      5-min Rain = 0
KCL2 151042Z 17019G26KT 22/20 A2981 RMK A01 T02200197  RH  087%=      5-min Rain = 0
KCL2 151043Z 18016G21KT 22/20 A2981 RMK A01 T02200196  RH  087%=      5-min Rain = 0
KCL2 151044Z 18016G24KT 22/20 A2981 RMK A01 T02200197  RH  087%=      5-min Rain = 0
KCL2 151045Z 17017KT 22/20 A2981 RMK A01 T02200197  RH  087%=      5-min Rain = 0
KCL2 151046Z 18017G23KT 22/20 A2981 RMK A01 T02190196  RH  087%=      5-min Rain = 0
KCL2 151047Z 18018KT 22/20 A2981 RMK A01 T02190196  RH  087%=      5-min Rain = 0
KCL2 151048Z 18016G23KT 22/20 A2981 RMK A01 T02190197  RH  087%=      5-min Rain = 0
KCL2 151049Z 18017G23KT 22/20 A2981 RMK A01 T02190197  RH  087%=      5-min Rain = 0
KCL2 151050Z 18016KT 22/20 A2981 RMK A01 T02190197  RH  087%=      5-min Rain = 0
KCL2 151051Z 18016KT 22/20 A2982 RMK A01 T02190196  RH  087%=      5-min Rain = 0
KCL2 151052Z 18017KT 22/20 A2982 RMK A01 T02190197  RH  087%=      5-min Rain = 0
KCL2 151053Z 18016KT 22/20 A2982 RMK A01 T02190197  RH  087%=      5-min Rain = 0
KCL2 151054Z 18015KT 22/20 A2982 RMK A01 T02190197  RH  087%=      5-min Rain = 0
KCL2 151055Z 18017KT 22/20 A2982 RMK A01 T02190197  RH  087%=      5-min Rain = 0
KCL2 151056Z 18017KT 22/20 A2982 RMK A01 T02190197  RH  087%=      5-min Rain = 0
KCL2 151057Z 18019G24KT 22/20 A2982 RMK A01 T02190197  RH  088%=      5-min Rain = 0
KCL2 151058Z 18016G24KT 22/20 A2982 RMK A01 T02190197  RH  087%=      5-min Rain = 0
KCL2 151059Z 18017KT 22/20 A2982 RMK A01 T02190197  RH  087%=      5-min Rain = 0
KCL2 151100Z 18014KT 22/20 A2982 RMK A01 T02190197  RH  087%=      5-min Rain = 0
KCL2 151101Z 18016G22KT 22/20 A2982 RMK A01 T02180197  RH  088%=      5-min Rain = 0
KCL2 151102Z 18016G24KT 22/20 A2982 RMK A01 T02180197  RH  088%=      5-min Rain = 0
KCL2 151103Z 18016KT 22/20 A2982 RMK A01 T02180197  RH  088%=      5-min Rain = 0
KCL2 151104Z 18016G21KT 22/20 A2982 RMK A01 T02180197  RH  088%=      5-min Rain = 0
KCL2 151105Z 18015KT 22/20 A2982 RMK A01 T02180197  RH  088%=      5-min Rain = 0
KCL2 151106Z 18015G20KT 22/20 A2982 RMK A01 T02180197  RH  088%=      5-min Rain = 0
KCL2 151107Z 18016G22KT 22/20 A2982 RMK A01 T02180198  RH  088%=      5-min Rain = 0
KCL2 151108Z 18017G22KT 22/20 A2982 RMK A01 T02170197  RH  088%=      5-min Rain = 0
KCL2 151109Z 18016KT 22/20 A2983 RMK A01 T02170197  RH  088%=      5-min Rain = 0
KCL2 151110Z 18016G21KT 22/20 A2982 RMK A01 T02170198  RH  088%=      5-min Rain = 0
KCL2 151111Z 18016KT 22/20 A2982 RMK A01 T02170197  RH  089%=      5-min Rain = 0
KCL2 151112Z 18016KT 22/20 A2982 RMK A01 T02170198  RH  089%=      5-min Rain = 0
KCL2 151113Z 18014G19KT 22/20 A2983 RMK A01 T02170198  RH  089%=      5-min Rain = 0
KCL2 151114Z 18017KT 22/20 A2982 RMK A01 T02170198  RH  089%=      5-min Rain = 0
KCL2 151115Z 18017G23KT 22/20 A2983 RMK A01 T02170198  RH  089%=      5-min Rain = 0
KCL2 151116Z 18016G21KT 22/20 A2983 RMK A01 T02170198  RH  089%=      5-min Rain = 0
KCL2 151117Z 18017KT 22/20 A2983 RMK A01 T02170198  RH  089%=      5-min Rain = 0
KCL2 151118Z 18016G21KT 22/20 A2983 RMK A01 T02170198  RH  089%=      5-min Rain = 0
KCL2 151119Z 18015KT 22/20 A2983 RMK A01 T02170198  RH  089%=      5-min Rain = 0
KCL2 151120Z 19015G20KT 22/20 A2983 RMK A01 T02170198  RH  089%=      5-min Rain = 0
KCL2 151121Z 18017G22KT 22/20 A2983 RMK A01 T02170198  RH  089%=      5-min Rain = 0
KCL2 151122Z 18015G20KT 22/20 A2983 RMK A01 T02170198  RH  089%=      5-min Rain = 0
KCL2 151123Z 18016G21KT 22/20 A2983 RMK A01 T02170198  RH  089%=      5-min Rain = 0
KCL2 151124Z 18014KT 22/20 A2983 RMK A01 T02170199  RH  089%=      5-min Rain = 0
KCL2 151125Z 18016G22KT 22/20 A2983 RMK A01 T02170199  RH  089%=      5-min Rain = 0
KCL2 151126Z 18016G21KT 22/20 A2983 RMK A01 T02170199  RH  089%=      5-min Rain = 0
KCL2 151127Z 18015KT 22/20 A2983 RMK A01 T02170199  RH  089%=      5-min Rain = 0
KCL2 151128Z 18019KT 22/20 A2983 RMK A01 T02170199  RH  089%=      5-min Rain = 0
KCL2 151129Z 18016KT 22/20 A2983 RMK A01 T02170199  RH  089%=      5-min Rain = 0
KCL2 151130Z 18017KT 22/20 A2983 RMK A01 T02170199  RH  089%=      5-min Rain = 0
KCL2 151131Z 18016KT 22/20 A2983 RMK A01 T02170199  RH  089%=      5-min Rain = 0
KCL2 151132Z 18014KT 22/20 A2983 RMK A01 T02170199  RH  089%=      5-min Rain = 0
KCL2 151133Z 18014KT 22/20 A2983 RMK A01 T02170199  RH  089%=      5-min Rain = 0
KCL2 151134Z 18016KT 22/20 A2983 RMK A01 T02170199  RH  090%=      5-min Rain = 0
KCL2 151135Z 18015G20KT 22/20 A2983 RMK A01 T02170199  RH  090%=      5-min Rain = 0
KCL2 151136Z 18015G20KT 22/20 A2983 RMK A01 T02170199  RH  090%=      5-min Rain = 0
KCL2 151137Z 18015KT 22/20 A2983 RMK A01 T02170199  RH  090%=      5-min Rain = 0
KCL2 151138Z 18015KT 22/20 A2983 RMK A01 T02170199  RH  090%=      5-min Rain = 0
KCL2 151139Z 18012KT 22/20 A2983 RMK A01 T02170199  RH  090%=      5-min Rain = 0
KCL2 151140Z 18012KT 22/20 A2983 RMK A01 T02170200  RH  090%=      5-min Rain = 0
KCL2 151141Z 18013G19KT 22/20 A2983 RMK A01 T02170200  RH  090%=      5-min Rain = 0
KCL2 151142Z 18016G21KT 22/20 A2983 RMK A01 T02170200  RH  090%=      5-min Rain = 0
KCL2 151143Z 18014KT 22/20 A2983 RMK A01 T02160200  RH  090%=      5-min Rain = 0
KCL2 151144Z 18017KT 22/20 A2983 RMK A01 T02160200  RH  090%=      5-min Rain = 0
KCL2 151145Z 18018KT 22/20 A2984 RMK A01 T02170200  RH  090%=      5-min Rain = 0
KCL2 151146Z 19015KT 22/20 A2984 RMK A01 T02170200  RH  090%=      5-min Rain = 0
KCL2 151147Z 19015KT 22/20 A2984 RMK A01 T02170200  RH  090%=      5-min Rain = 0
KCL2 151148Z 18014G20KT 22/20 A2984 RMK A01 T02170200  RH  090%=      5-min Rain = 0
KCL2 151149Z 18014KT 22/20 A2984 RMK A01 T02170201  RH  090%=      5-min Rain = 0
KCL2 151150Z 18015KT 22/20 A2984 RMK A01 T02170200  RH  090%=      5-min Rain = 0
KCL2 151151Z 18017KT 22/20 A2983 RMK A01 T02170201  RH  090%=      5-min Rain = 0
KCL2 151152Z 18014G19KT 22/20 A2983 RMK A01 T02170201  RH  090%=      5-min Rain = 0
KCL2 151153Z 18014G22KT 22/20 A2983 RMK A01 T02170200  RH  090%=      5-min Rain = 0
KCL2 151154Z 18016KT 22/20 A2983 RMK A01 T02170201  RH  090%=      5-min Rain = 0
KCL2 151155Z 19017KT 22/20 A2983 RMK A01 T02170201  RH  090%=      5-min Rain = 0
KCL2 151156Z 18015KT 22/20 A2984 RMK A01 T02180201  RH  090%=      5-min Rain = 0
KCL2 151157Z 18017KT 22/20 A2984 RMK A01 T02180201  RH  090%=      5-min Rain = 0
KCL2 151158Z 18018KT 22/20 A2984 RMK A01 T02190201  RH  090%=      5-min Rain = 0
KCL2 151159Z 18017KT 22/20 A2984 RMK A01 T02190201  RH  090%=      5-min Rain = 0
KCL2 151200Z 18015G22KT 22/20 A2984 RMK A01 T02190201  RH  089%=      5-min Rain = 0
KCL2 151201Z 18018G23KT 22/20 A2984 RMK A01 T02190201  RH  089%=      5-min Rain = 0
KCL2 151202Z 18017KT 22/20 A2984 RMK A01 T02190201  RH  089%=      5-min Rain = 0
KCL2 151203Z 18015KT 22/20 A2984 RMK A01 T02190201  RH  089%=      5-min Rain = 0
KCL2 151204Z 19018G23KT 22/20 A2984 RMK A01 T02200201  RH  089%=      5-min Rain = 0
KCL2 151205Z 19017KT 22/20 A2984 RMK A01 T02200202  RH  089%=      5-min Rain = 0
KCL2 151206Z 18015G21KT 22/20 A2984 RMK A01 T02200202  RH  089%=      5-min Rain = 0
KCL2 151207Z 18016G21KT 22/20 A2984 RMK A01 T02210202  RH  089%=      5-min Rain = 0
KCL2 151208Z 18016G21KT 22/20 A2984 RMK A01 T02210202  RH  089%=      5-min Rain = 0
KCL2 151209Z 18014KT 22/20 A2984 RMK A01 T02210202  RH  089%=      5-min Rain = 0
KCL2 151210Z 18016KT 22/20 A2984 RMK A01 T02210202  RH  089%=      5-min Rain = 0
KCL2 151211Z 18017KT 22/20 A2984 RMK A01 T02210202  RH  089%=      5-min Rain = 0
KCL2 151212Z 19015KT 22/20 A2984 RMK A01 T02220202  RH  089%=      5-min Rain = 0
KCL2 151213Z 19016KT 22/20 A2984 RMK A01 T02220203  RH  089%=      5-min Rain = 0
KCL2 151214Z 18014KT 22/20 A2984 RMK A01 T02220203  RH  089%=      5-min Rain = 0
KCL2 151215Z 19013G18KT 22/20 A2984 RMK A01 T02220203  RH  089%=      5-min Rain = 0
KCL2 151216Z 19015G20KT 22/20 A2984 RMK A01 T02220203  RH  089%=      5-min Rain = 0
KCL2 151217Z 18018G23KT 22/20 A2984 RMK A01 T02230203  RH  089%=      5-min Rain = 0
KCL2 151218Z 18016G21KT 22/20 A2984 RMK A01 T02230203  RH  088%=      5-min Rain = 0
KCL2 151219Z 18015KT 22/20 A2984 RMK A01 T02240203  RH  088%=      5-min Rain = 0
KCL2 151220Z 18016KT 22/20 A2984 RMK A01 T02240203  RH  088%=      5-min Rain = 0
KCL2 151221Z 18014KT 22/20 A2984 RMK A01 T02240203  RH  088%=      5-min Rain = 0
KCL2 151222Z 18015G20KT 22/20 A2984 RMK A01 T02240203  RH  088%=      5-min Rain = 0
KCL2 151223Z 18015KT 22/20 A2984 RMK A01 T02240203  RH  088%=      5-min Rain = 0
KCL2 151224Z 18016KT 22/20 A2984 RMK A01 T02240203  RH  088%=      5-min Rain = 0
KCL2 151225Z 18017KT 23/20 A2984 RMK A01 T02250204  RH  088%=      5-min Rain = 0
KCL2 151226Z 18015G21KT 23/20 A2984 RMK A01 T02250204  RH  088%=      5-min Rain = 0
KCL2 151227Z 19013KT 23/20 A2984 RMK A01 T02250204  RH  088%=      5-min Rain = 0
KCL2 151228Z 18017KT 23/20 A2984 RMK A01 T02250204  RH  088%=      5-min Rain = 0
KCL2 151229Z 18016KT 23/20 A2984 RMK A01 T02250204  RH  087%=      5-min Rain = 0
KCL2 151230Z 19014KT 23/20 A2984 RMK A01 T02260204  RH  087%=      5-min Rain = 0
KCL2 151231Z 19014KT 23/20 A2984 RMK A01 T02260204  RH  087%=      5-min Rain = 0
KCL2 151232Z 18017KT 23/20 A2984 RMK A01 T02270204  RH  087%=      5-min Rain = 0
KCL2 151233Z 18017G22KT 23/20 A2984 RMK A01 T02270204  RH  087%=      5-min Rain = 0
KCL2 151234Z 18016G21KT 23/20 A2984 RMK A01 T02270204  RH  087%=      5-min Rain = 0
KCL2 151235Z 19017KT 23/20 A2984 RMK A01 T02270204  RH  087%=      5-min Rain = 0
KCL2 151236Z 18017KT 23/21 A2985 RMK A01 T02280205  RH  087%=      5-min Rain = 0
KCL2 151237Z 18016KT 23/21 A2984 RMK A01 T02280205  RH  087%=      5-min Rain = 0
KCL2 151238Z 18016KT 23/21 A2984 RMK A01 T02280205  RH  087%=      5-min Rain = 0
KCL2 151239Z 18016G21KT 23/21 A2984 RMK A01 T02280205  RH  086%=      5-min Rain = 0
KCL2 151240Z 18018KT 23/21 A2984 RMK A01 T02290205  RH  086%=      5-min Rain = 0
KCL2 151241Z 19016KT 23/21 A2985 RMK A01 T02290205  RH  086%=      5-min Rain = 0
KCL2 151242Z 19015KT 23/21 A2985 RMK A01 T02300205  RH  086%=      5-min Rain = 0
KCL2 151243Z 19014KT 23/21 A2985 RMK A01 T02300206  RH  086%=      5-min Rain = 0
KCL2 151244Z 19017G23KT 23/21 A2985 RMK A01 T02300206  RH  086%=      5-min Rain = 0
KCL2 151245Z 19015KT 23/21 A2985 RMK A01 T02300205  RH  086%=      5-min Rain = 0
KCL2 151246Z 19014KT 23/21 A2985 RMK A01 T02310206  RH  086%=      5-min Rain = 0
KCL2 151247Z 19016KT 23/21 A2985 RMK A01 T02310206  RH  085%=      5-min Rain = 0
KCL2 151248Z 18016KT 23/21 A2985 RMK A01 T02320206  RH  085%=      5-min Rain = 0
KCL2 151249Z 19017KT 23/21 A2985 RMK A01 T02320205  RH  085%=      5-min Rain = 0
KCL2 151250Z 19012G17KT 23/21 A2985 RMK A01 T02320206  RH  085%=      5-min Rain = 0
KCL2 151251Z 19013G18KT 23/21 A2985 RMK A01 T02330206  RH  085%=      5-min Rain = 0
KCL2 151252Z 20016KT 23/21 A2985 RMK A01 T02330206  RH  085%=      5-min Rain = 0
KCL2 151253Z 18014G21KT 23/21 A2985 RMK A01 T02330206  RH  085%=      5-min Rain = 0
KCL2 151254Z 19017G23KT 23/21 A2985 RMK A01 T02340206  RH  085%=      5-min Rain = 0
KCL2 151255Z 19017KT 23/21 A2985 RMK A01 T02340206  RH  084%=      5-min Rain = 0
KCL2 151256Z 19015G22KT 23/21 A2985 RMK A01 T02340206  RH  084%=      5-min Rain = 0
KCL2 151257Z 19017KT 24/21 A2985 RMK A01 T02350206  RH  084%=      5-min Rain = 0
KCL2 151258Z 19015G21KT 24/21 A2985 RMK A01 T02350207  RH  084%=      5-min Rain = 0
KCL2 151259Z 19019G24KT 24/21 A2985 RMK A01 T02360207  RH  084%=      5-min Rain = 0
KCL2 151300Z 19016G21KT 24/21 A2985 RMK A01 T02360206  RH  083%=      5-min Rain = 0
KCL2 151301Z 18015G24KT 24/21 A2985 RMK A01 T02360207  RH  084%=      5-min Rain = 0
KCL2 151302Z 19019KT 24/21 A2984 RMK A01 T02370207  RH  083%=      5-min Rain = 0
KCL2 151303Z 19016G21KT 24/21 A2985 RMK A01 T02370207  RH  083%=      5-min Rain = 0
KCL2 151304Z 20014G19KT 24/21 A2985 RMK A01 T02370207  RH  083%=      5-min Rain = 0
KCL2 151305Z 19019KT 24/21 A2985 RMK A01 T02370206  RH  083%=      5-min Rain = 0
KCL2 151306Z 19015G20KT 24/21 A2985 RMK A01 T02380207  RH  083%=      5-min Rain = 0
KCL2 151307Z 19014KT 24/21 A2985 RMK A01 T02380207  RH  083%=      5-min Rain = 0
KCL2 151308Z 19017G23KT 24/21 A2985 RMK A01 T02390207  RH  083%=      5-min Rain = 0
KCL2 151309Z 18018KT 24/21 A2985 RMK A01 T02390207  RH  082%=      5-min Rain = 0
KCL2 151310Z 19017KT 24/21 A2985 RMK A01 T02390207  RH  082%=      5-min Rain = 0
KCL2 151311Z 19018G26KT 24/21 A2985 RMK A01 T02390207  RH  082%=      5-min Rain = 0
KCL2 151312Z 19018G28KT 24/21 A2985 RMK A01 T02400206  RH  081%=      5-min Rain = 0
KCL2 151313Z 19014KT 24/21 A2985 RMK A01 T02400207  RH  082%=      5-min Rain = 0
KCL2 151314Z 19016KT 24/21 A2985 RMK A01 T02410207  RH  081%=      5-min Rain = 0
KCL2 151315Z 19014KT 24/21 A2985 RMK A01 T02410207  RH  081%=      5-min Rain = 0
KCL2 151316Z 19012KT 24/21 A2985 RMK A01 T02410208  RH  081%=      5-min Rain = 0
KCL2 151317Z 20014KT 24/21 A2985 RMK A01 T02420208  RH  081%=      5-min Rain = 0
KCL2 151318Z 19020G25KT 24/21 A2985 RMK A01 T02430207  RH  081%=      5-min Rain = 0
KCL2 151319Z 19016KT 24/21 A2985 RMK A01 T02430207  RH  081%=      5-min Rain = 0
KCL2 151320Z 20017G23KT 24/21 A2985 RMK A01 T02430207  RH  081%=      5-min Rain = 0
KCL2 151321Z 19018KT 24/21 A2986 RMK A01 T02430207  RH  080%=      5-min Rain = 0
KCL2 151322Z 19017KT 24/21 A2986 RMK A01 T02430207  RH  080%=      5-min Rain = 0
KCL2 151323Z 20017G23KT 24/21 A2985 RMK A01 T02440207  RH  080%=      5-min Rain = 0
KCL2 151324Z 19018G23KT 24/21 A2985 RMK A01 T02440207  RH  080%=      5-min Rain = 0
KCL2 151325Z 18016G22KT 24/21 A2985 RMK A01 T02440207  RH  080%=      5-min Rain = 0
KCL2 151326Z 19017KT 24/21 A2986 RMK A01 T02440207  RH  080%=      5-min Rain = 0
KCL2 151327Z 19015G20KT 24/21 A2986 RMK A01 T02420207  RH  081%=      5-min Rain = 0
KCL2 151328Z 19018KT 24/21 A2986 RMK A01 T02410206  RH  081%=      5-min Rain = 0
KCL2 151329Z 19016G22KT 24/21 A2985 RMK A01 T02410206  RH  081%=      5-min Rain = 0
KCL2 151330Z 19014KT 24/21 A2986 RMK A01 T02400206  RH  081%=      5-min Rain = 0
KCL2 151331Z 19012KT 24/21 A2986 RMK A01 T02400206  RH  082%=      5-min Rain = 0
KCL2 151332Z 18014KT 24/21 A2986 RMK A01 T02390206  RH  082%=      5-min Rain = 0
KCL2 151333Z 19014KT 24/21 A2986 RMK A01 T02390206  RH  082%=      5-min Rain = 0
KCL2 151334Z 19014G20KT 24/21 A2986 RMK A01 T02380206  RH  082%=      5-min Rain = 0
KCL2 151335Z 19014G19KT 24/21 A2986 RMK A01 T02380206  RH  082%=      5-min Rain = 0
KCL2 151336Z 18013KT 24/21 A2986 RMK A01 T02380206  RH  082%=      5-min Rain = 0
KCL2 151337Z 19016G21KT 24/21 A2986 RMK A01 T02380206  RH  082%=      5-min Rain = 0
KCL2 151338Z 19014G20KT 24/21 A2986 RMK A01 T02380206  RH  082%=      5-min Rain = 0
KCL2 151339Z 19013G19KT 24/21 A2986 RMK A01 T02380206  RH  082%=      5-min Rain = 0
KCL2 151340Z 19017G22KT 24/21 A2986 RMK A01 T02370205  RH  082%=      5-min Rain = 0
KCL2 151341Z 19013KT 24/21 A2986 RMK A01 T02380205  RH  082%=      5-min Rain = 0
KCL2 151342Z 18012G18KT 24/21 A2986 RMK A01 T02380205  RH  082%=      5-min Rain = 0
KCL2 151343Z 19016G21KT 24/21 A2986 RMK A01 T02380205  RH  082%=      5-min Rain = 0
KCL2 151344Z 19013KT 24/21 A2986 RMK A01 T02370205  RH  082%=      5-min Rain = 0
KCL2 151345Z 18014KT 24/21 A2986 RMK A01 T02380206  RH  082%=      5-min Rain = 0
KCL2 151346Z 19016G22KT 24/21 A2986 RMK A01 T02380205  RH  082%=      5-min Rain = 0
KCL2 151347Z 18015KT 24/21 A2986 RMK A01 T02380205  RH  082%=      5-min Rain = 0
KCL2 151348Z 19015KT 24/21 A2986 RMK A01 T02390205  RH  081%=      5-min Rain = 0
KCL2 151349Z 19014KT 24/21 A2986 RMK A01 T02400206  RH  081%=      5-min Rain = 0
KCL2 151350Z 19013KT 24/21 A2986 RMK A01 T02410206  RH  081%=      5-min Rain = 0
KCL2 151351Z 18011KT 24/21 A2986 RMK A01 T02430207  RH  080%=      5-min Rain = 0
KCL2 151352Z 18014KT 24/21 A2986 RMK A01 T02440207  RH  080%=      5-min Rain = 0
KCL2 151353Z 18016KT 24/21 A2985 RMK A01 T02440206  RH  079%=      5-min Rain = 0
KCL2 151354Z 18015G23KT 24/21 A2986 RMK A01 T02440207  RH  080%=      5-min Rain = 0
KCL2 151355Z 18016G22KT 24/21 A2986 RMK A01 T02440206  RH  079%=      5-min Rain = 0
KCL2 151356Z 17014G19KT 24/21 A2986 RMK A01 T02430206  RH  080%=      5-min Rain = 0
KCL2 151357Z 18013G18KT 24/21 A2986 RMK A01 T02420205  RH  080%=      5-min Rain = 0
KCL2 151358Z 18015KT 24/21 A2986 RMK A01 T02410205  RH  080%=      5-min Rain = 0
KCL2 151359Z 18013KT 24/21 A2986 RMK A01 T02400205  RH  081%=      5-min Rain = 0
KCL2 151400Z 18012G20KT 24/21 A2986 RMK A01 T02400206  RH  081%=      5-min Rain = 0
KCL2 151401Z 18013KT 24/21 A2985 RMK A01 T02410205  RH  081%=      5-min Rain = 0
KCL2 151402Z 18013G18KT 24/21 A2986 RMK A01 T02430206  RH  080%=      5-min Rain = 0
KCL2 151403Z 18014G19KT 25/21 A2986 RMK A01 T02460207  RH  079%=      5-min Rain = 0
KCL2 151404Z 19019KT 25/21 A2985 RMK A01 T02480206  RH  077%=      5-min Rain = 0
KCL2 151405Z 18014KT 25/21 A2986 RMK A01 T02500208  RH  077%=      5-min Rain = 0
KCL2 151406Z 18012KT 25/21 A2986 RMK A01 T02520209  RH  077%=      5-min Rain = 0
KCL2 151407Z 18013KT 25/21 A2986 RMK A01 T02540209  RH  076%=      5-min Rain = 0
KCL2 151408Z 19016KT 26/21 A2986 RMK A01 T02560208  RH  075%=      5-min Rain = 0
KCL2 151409Z 19014KT 26/21 A2986 RMK A01 T02560207  RH  074%=      5-min Rain = 0
KCL2 151410Z 18013KT 26/21 A2986 RMK A01 T02570208  RH  074%=      5-min Rain = 0
KCL2 151411Z 19012KT 26/21 A2986 RMK A01 T02580210  RH  075%=      5-min Rain = 0
KCL2 151412Z 19014G20KT 26/21 A2986 RMK A01 T02610208  RH  073%=      5-min Rain = 0
KCL2 151413Z 18014G25KT 26/21 A2986 RMK A01 T02610208  RH  073%=      5-min Rain = 0
KCL2 151414Z 18016KT 26/21 A2986 RMK A01 T02610206  RH  072%=      5-min Rain = 0
KCL2 151415Z 19015KT 26/21 A2985 RMK A01 T02600207  RH  072%=      5-min Rain = 0
KCL2 151416Z 18017KT 26/21 A2985 RMK A01 T02600207  RH  072%=      5-min Rain = 0
KCL2 151417Z 19020G25KT 26/21 A2986 RMK A01 T02610206  RH  072%=      5-min Rain = 0
KCL2 151418Z 18016KT 26/21 A2986 RMK A01 T02610206  RH  072%=      5-min Rain = 0
KCL2 151419Z 19014KT 26/21 A2986 RMK A01 T02610208  RH  072%=      5-min Rain = 0
KCL2 151420Z 19014KT 26/21 A2986 RMK A01 T02630209  RH  072%=      5-min Rain = 0
KCL2 151421Z 19015KT 27/21 A2986 RMK A01 T02650207  RH  071%=      5-min Rain = 0
KCL2 151422Z 18017G22KT 27/21 A2986 RMK A01 T02650208  RH  071%=      5-min Rain = 0
KCL2 151423Z 19018KT 27/21 A2985 RMK A01 T02650207  RH  070%=      5-min Rain = 0
KCL2 151424Z 18020KT 27/21 A2986 RMK A01 T02650206  RH  070%=      5-min Rain = 0
KCL2 151425Z 18020G25KT 27/21 A2985 RMK A01 T02650205  RH  070%=      5-min Rain = 0
KCL2 151426Z 18019G25KT 27/20 A2985 RMK A01 T02650204  RH  069%=      5-min Rain = 0
KCL2 151427Z 19018G24KT 27/20 A2985 RMK A01 T02650204  RH  069%=      5-min Rain = 0
KCL2 151428Z 19019G24KT 27/20 A2985 RMK A01 T02650204  RH  069%=      5-min Rain = 0
KCL2 151429Z 18016KT 27/21 A2985 RMK A01 T02660205  RH  069%=      5-min Rain = 0
KCL2 151430Z 18022KT 27/20 A2985 RMK A01 T02670204  RH  068%=      5-min Rain = 0
KCL2 151431Z 18021KT 27/20 A2985 RMK A01 T02660203  RH  068%=      5-min Rain = 0
KCL2 151432Z 18014G19KT 27/21 A2985 RMK A01 T02660205  RH  069%=      5-min Rain = 0
KCL2 151433Z 18019KT 27/21 A2985 RMK A01 T02670205  RH  069%=      5-min Rain = 0
KCL2 151434Z 19019KT 27/20 A2985 RMK A01 T02680203  RH  068%=      5-min Rain = 0
KCL2 151435Z 19021G26KT 27/20 A2985 RMK A01 T02650202  RH  068%=      5-min Rain = 0
KCL2 151436Z 19021KT 26/20 A2985 RMK A01 T02620201  RH  069%=      5-min Rain = 0
KCL2 151437Z 18018G24KT 26/20 A2985 RMK A01 T02580201  RH  071%=      5-min Rain = 0
KCL2 151438Z 18018G25KT 26/20 A2985 RMK A01 T02570202  RH  072%=      5-min Rain = 0
KCL2 151439Z 18016G24KT 26/20 A2985 RMK A01 T02560202  RH  072%=      5-min Rain = 0
KCL2 151440Z 19019G24KT 26/20 A2985 RMK A01 T02550200  RH  072%=      5-min Rain = 0
KCL2 151441Z 18015KT 26/20 A2985 RMK A01 T02550200  RH  072%=      5-min Rain = 0
KCL2 151442Z 19014KT 25/20 A2985 RMK A01 T02540201  RH  072%=      5-min Rain = 0
KCL2 151443Z 18017G22KT 25/20 A2985 RMK A01 T02540202  RH  073%=      5-min Rain = 0
KCL2 151444Z 18018KT 25/20 A2985 RMK A01 T02540202  RH  073%=      5-min Rain = 0
KCL2 151445Z 19015KT 25/20 A2985 RMK A01 T02540202  RH  073%=      5-min Rain = 0
KCL2 151446Z 20013G20KT 25/20 A2985 RMK A01 T02540203  RH  073%=      5-min Rain = 0
KCL2 151447Z 19017KT 25/20 A2985 RMK A01 T02540202  RH  073%=      5-min Rain = 0
KCL2 151448Z 18012KT 25/20 A2985 RMK A01 T02540202  RH  073%=      5-min Rain = 0
KCL2 151449Z 18015G21KT 25/20 A2985 RMK A01 T02540202  RH  073%=      5-min Rain = 0
KCL2 151450Z 18020G27KT 25/20 A2985 RMK A01 T02540200  RH  072%=      5-min Rain = 0
KCL2 151451Z 19017KT 26/20 A2985 RMK A01 T02550201  RH  072%=      5-min Rain = 0
KCL2 151452Z 19020G25KT 26/20 A2985 RMK A01 T02550200  RH  072%=      5-min Rain = 0
KCL2 151453Z 19024KT 26/20 A2985 RMK A01 T02550199  RH  071%=      5-min Rain = 0
KCL2 151454Z 19018KT 26/20 A2985 RMK A01 T02550198  RH  071%=      5-min Rain = 0
KCL2 151455Z 19017KT 26/20 A2985 RMK A01 T02550198  RH  071%=      5-min Rain = 0
KCL2 151456Z 19016G21KT 26/20 A2985 RMK A01 T02550199  RH  071%=      5-min Rain = 0
KCL2 151457Z 19020G25KT 26/20 A2985 RMK A01 T02560201  RH  071%=      5-min Rain = 0
KCL2 151458Z 20015KT 26/20 A2985 RMK A01 T02570201  RH  071%=      5-min Rain = 0
KCL2 151459Z 18016G21KT 26/20 A2985 RMK A01 T02590203  RH  071%=      5-min Rain = 0
KCL2 151500Z 19021G28KT 26/20 A2985 RMK A01 T02600201  RH  070%=      5-min Rain = 0
KCL2 151501Z 19022G28KT 26/20 A2985 RMK A01 T02600201  RH  070%=      5-min Rain = 0
KCL2 151502Z 19020G25KT 26/20 A2985 RMK A01 T02600202  RH  070%=      5-min Rain = 0
KCL2 151503Z 19016G22KT 26/20 A2985 RMK A01 T02610204  RH  071%=      5-min Rain = 0
KCL2 151504Z 19020KT 26/20 A2985 RMK A01 T02630203  RH  069%=      5-min Rain = 0
KCL2 151505Z 18014KT 26/20 A2985 RMK A01 T02630204  RH  070%=      5-min Rain = 0
KCL2 151506Z 18017G25KT 27/21 A2985 RMK A01 T02660207  RH  070%=      5-min Rain = 0
KCL2 151507Z 18017KT 27/21 A2985 RMK A01 T02680206  RH  069%=      5-min Rain = 0
KCL2 151508Z 19020KT 27/21 A2984 RMK A01 T02690206  RH  068%=      5-min Rain = 0
KCL2 151509Z 18016KT 27/21 A2984 RMK A01 T02680206  RH  069%=      5-min Rain = 0
KCL2 151510Z 18016G21KT 27/21 A2984 RMK A01 T02660207  RH  070%=      5-min Rain = 0
KCL2 151511Z 18016KT 27/21 A2984 RMK A01 T02660206  RH  070%=      5-min Rain = 0
KCL2 151512Z 18019KT 27/21 A2984 RMK A01 T02670207  RH  069%=      5-min Rain = 0
KCL2 151513Z 18019KT 27/21 A2984 RMK A01 T02670206  RH  069%=      5-min Rain = 0
KCL2 151514Z 18018KT 27/21 A2984 RMK A01 T02670207  RH  069%=      5-min Rain = 0
KCL2 151515Z 18016G21KT 27/21 A2984 RMK A01 T02680207  RH  069%=      5-min Rain = 0
KCL2 151516Z 18016G23KT 27/21 A2984 RMK A01 T02700210  RH  070%=      5-min Rain = 0
KCL2 151517Z 19018KT 27/21 A2984 RMK A01 T02730210  RH  069%=      5-min Rain = 0
KCL2 151518Z 19016KT 27/21 A2984 RMK A01 T02730209  RH  068%=      5-min Rain = 0
KCL2 151519Z 18016G22KT 27/21 A2984 RMK A01 T02730211  RH  069%=      5-min Rain = 0
KCL2 151520Z 19019KT 27/21 A2984 RMK A01 T02740207  RH  067%=      5-min Rain = 0
KCL2 151521Z 18017G22KT 27/21 A2984 RMK A01 T02740208  RH  067%=      5-min Rain = 0
KCL2 151522Z 19019KT 27/21 A2984 RMK A01 T02720207  RH  068%=      5-min Rain = 0
KCL2 151523Z 19017G24KT 27/21 A2984 RMK A01 T02680206  RH  069%=      5-min Rain = 0
KCL2 151524Z 18017KT 27/21 A2984 RMK A01 T02650205  RH  069%=      5-min Rain = 0
KCL2 151525Z 18014G20KT 26/21 A2984 RMK A01 T02640205  RH  070%=      5-min Rain = 0
KCL2 151526Z 19019KT 26/21 A2984 RMK A01 T02620205  RH  071%=      5-min Rain = 0
KCL2 151527Z 18017KT 26/21 A2984 RMK A01 T02620206  RH  071%=      5-min Rain = 0
KCL2 151528Z 19016KT 27/21 A2984 RMK A01 T02650207  RH  070%=      5-min Rain = 0
KCL2 151529Z 19016KT 27/21 A2984 RMK A01 T02690210  RH  070%=      5-min Rain = 0
KCL2 151530Z 20013KT 27/21 A2984 RMK A01 T02730211  RH  069%=      5-min Rain = 0
KCL2 151531Z 20016G22KT 28/21 A2984 RMK A01 T02770211  RH  067%=      5-min Rain = 0
KCL2 151532Z 20019G24KT 28/21 A2984 RMK A01 T02800207  RH  064%=      5-min Rain = 0
KCL2 151533Z 19019G24KT 28/21 A2984 RMK A01 T02800207  RH  064%=      5-min Rain = 0
KCL2 151534Z 20019KT 28/21 A2984 RMK A01 T02790206  RH  064%=      5-min Rain = 0
KCL2 151535Z 20017KT 28/21 A2984 RMK A01 T02780207  RH  065%=      5-min Rain = 0
KCL2 151536Z 19014G20KT 28/21 A2984 RMK A01 T02780208  RH  066%=      5-min Rain = 0
KCL2 151537Z 19015G21KT 28/21 A2984 RMK A01 T02800208  RH  065%=      5-min Rain = 0
KCL2 151538Z 19017G23KT 28/21 A2985 RMK A01 T02810209  RH  065%=      5-min Rain = 0
KCL2 151539Z 19019KT 28/21 A2985 RMK A01 T02800205  RH  064%=      5-min Rain = 0
KCL2 151540Z 19019G24KT 28/21 A2985 RMK A01 T02780207  RH  065%=      5-min Rain = 0
KCL2 151541Z 20021G26KT 28/20 A2984 RMK A01 T02760203  RH  064%=      5-min Rain = 0
KCL2 151542Z 20017KT 27/20 A2984 RMK A01 T02730204  RH  066%=      5-min Rain = 0
KCL2 151543Z 20020G26KT 27/21 A2984 RMK A01 T02730205  RH  066%=      5-min Rain = 0
KCL2 151544Z 19019KT 27/20 A2984 RMK A01 T02730203  RH  066%=      5-min Rain = 0
KCL2 151545Z 18018G25KT 27/21 A2984 RMK A01 T02730205  RH  066%=      5-min Rain = 0
KCL2 151546Z 20019G24KT 27/21 A2984 RMK A01 T02740205  RH  066%=      5-min Rain = 0
KCL2 151547Z 20019G26KT 28/21 A2984 RMK A01 T02750206  RH  066%=      5-min Rain = 0
KCL2 151548Z 19019KT 28/21 A2984 RMK A01 T02750205  RH  066%=      5-min Rain = 0
KCL2 151549Z 19017KT 28/21 A2985 RMK A01 T02760206  RH  066%=      5-min Rain = 0
KCL2 151550Z 20018G23KT 28/21 A2984 RMK A01 T02770207  RH  066%=      5-min Rain = 0
KCL2 151551Z 19020KT 28/21 A2984 RMK A01 T02780206  RH  065%=      5-min Rain = 0
KCL2 151552Z 20017KT 28/21 A2984 RMK A01 T02760205  RH  065%=      5-min Rain = 0
KCL2 151553Z 19014G19KT 28/21 A2984 RMK A01 T02760209  RH  067%=      5-min Rain = 0
KCL2 151554Z 19019KT 28/21 A2984 RMK A01 T02790209  RH  065%=      5-min Rain = 0
KCL2 151555Z 19017KT 28/21 A2984 RMK A01 T02800208  RH  065%=      5-min Rain = 0
KCL2 151556Z 19016KT 28/21 A2984 RMK A01 T02790210  RH  066%=      5-min Rain = 0
KCL2 151557Z 18016G21KT 28/21 A2984 RMK A01 T02790209  RH  065%=      5-min Rain = 0
KCL2 151558Z 18019KT 28/21 A2984 RMK A01 T02800210  RH  066%=      5-min Rain = 0
KCL2 151559Z 20016G21KT 28/21 A2984 RMK A01 T02800210  RH  066%=      5-min Rain = 0
KCL2 151600Z 20018KT 28/21 A2984 RMK A01 T02800209  RH  065%=      5-min Rain = 0
KCL2 151601Z 19016KT 28/21 A2984 RMK A01 T02800210  RH  066%=      5-min Rain = 0
KCL2 151602Z 19020KT 28/21 A2984 RMK A01 T02800209  RH  065%=      5-min Rain = 0
KCL2 151603Z 19015KT 28/21 A2984 RMK A01 T02800207  RH  065%=      5-min Rain = 0
KCL2 151604Z 18019G25KT 28/21 A2984 RMK A01 T02800208  RH  065%=      5-min Rain = 0
KCL2 151605Z 18019KT 28/21 A2984 RMK A01 T02800207  RH  065%=      5-min Rain = 0
KCL2 151606Z 19019KT 28/21 A2984 RMK A01 T02800208  RH  065%=      5-min Rain = 0
KCL2 151607Z 19020G25KT 28/21 A2984 RMK A01 T02800207  RH  065%=      5-min Rain = 0
KCL2 151608Z 18018KT 28/21 A2984 RMK A01 T02800206  RH  064%=      5-min Rain = 0
KCL2 151609Z 19018KT 28/21 A2984 RMK A01 T02810205  RH  063%=      5-min Rain = 0
KCL2 151610Z 19017KT 28/21 A2984 RMK A01 T02820206  RH  063%=      5-min Rain = 0
KCL2 151611Z 19018KT 28/21 A2984 RMK A01 T02840207  RH  063%=      5-min Rain = 0
KCL2 151612Z 19020KT 29/20 A2984 RMK A01 T02860202  RH  061%=      5-min Rain = 0
KCL2 151613Z 20017G23KT 29/20 A2984 RMK A01 T02860202  RH  060%=      5-min Rain = 0
KCL2 151614Z 20015KT 29/21 A2984 RMK A01 T02860205  RH  061%=      5-min Rain = 0
KCL2 151615Z 19017G24KT 29/21 A2984 RMK A01 T02890207  RH  061%=      5-min Rain = 0
KCL2 151616Z 19019G25KT 29/21 A2984 RMK A01 T02900205  RH  060%=      5-min Rain = 0
KCL2 151617Z 20018G24KT 29/21 A2984 RMK A01 T02880205  RH  061%=      5-min Rain = 0
KCL2 151618Z 19013G19KT 29/21 A2985 RMK A01 T02880207  RH  061%=      5-min Rain = 0
KCL2 151619Z 20017G23KT 29/21 A2985 RMK A01 T02890207  RH  061%=      5-min Rain = 0
KCL2 151620Z 19019KT 29/21 A2985 RMK A01 T02900208  RH  061%=      5-min Rain = 0
KCL2 151621Z 20018KT 29/21 A2985 RMK A01 T02890208  RH  062%=      5-min Rain = 0
KCL2 151622Z 19013KT 29/21 A2985 RMK A01 T02890210  RH  062%=      5-min Rain = 0
KCL2 151623Z 20018G23KT 29/21 A2985 RMK A01 T02900209  RH  062%=      5-min Rain = 0
KCL2 151624Z 19018KT 29/21 A2985 RMK A01 T02900206  RH  061%=      5-min Rain = 0
KCL2 151625Z 19017KT 29/21 A2985 RMK A01 T02890207  RH  061%=      5-min Rain = 0
KCL2 151626Z 19015G23KT 29/21 A2985 RMK A01 T02890209  RH  062%=      5-min Rain = 0
KCL2 151627Z 19018KT 29/21 A2985 RMK A01 T02900208  RH  061%=      5-min Rain = 0
KCL2 151628Z 19017KT 29/21 A2985 RMK A01 T02910208  RH  061%=      5-min Rain = 0
KCL2 151629Z 19015KT 29/21 A2985 RMK A01 T02910210  RH  062%=      5-min Rain = 0
KCL2 151630Z 21015KT 29/21 A2985 RMK A01 T02930210  RH  061%=      5-min Rain = 0
KCL2 151631Z 19013KT 30/21 A2985 RMK A01 T02950212  RH  061%=      5-min Rain = 0
KCL2 151632Z 19013G18KT 30/21 A2984 RMK A01 T02960213  RH  061%=      5-min Rain = 0
KCL2 151633Z 20017KT 30/21 A2985 RMK A01 T02970211  RH  060%=      5-min Rain = 0
KCL2 151634Z 20017G22KT 30/21 A2984 RMK A01 T02960210  RH  060%=      5-min Rain = 0
KCL2 151635Z 20014G19KT 30/21 A2985 RMK A01 T02960213  RH  061%=      5-min Rain = 0
KCL2 151636Z 18015G22KT 30/21 A2984 RMK A01 T02970209  RH  059%=      5-min Rain = 0
KCL2 151637Z 19015G22KT 30/21 A2984 RMK A01 T02960209  RH  060%=      5-min Rain = 0
KCL2 151638Z 19019G24KT 29/21 A2984 RMK A01 T02940207  RH  060%=      5-min Rain = 0
KCL2 151639Z 20016G22KT 29/21 A2985 RMK A01 T02890206  RH  061%=      5-min Rain = 0
KCL2 151640Z 18015G21KT 29/21 A2985 RMK A01 T02870206  RH  062%=      5-min Rain = 0
KCL2 151641Z 19014G22KT 29/21 A2985 RMK A01 T02860205  RH  061%=      5-min Rain = 0
KCL2 151642Z 20013G20KT 29/21 A2985 RMK A01 T02890208  RH  062%=      5-min Rain = 0
KCL2 151643Z 20017KT 29/20 A2985 RMK A01 T02910204  RH  059%=      5-min Rain = 0
KCL2 151644Z 19017G23KT 29/20 A2985 RMK A01 T02910204  RH  060%=      5-min Rain = 0
KCL2 151645Z 18016G21KT 29/20 A2985 RMK A01 T02910203  RH  059%=      5-min Rain = 0
KCL2 151646Z 18019KT 29/20 A2985 RMK A01 T02910203  RH  059%=      5-min Rain = 0
KCL2 151647Z 18015G21KT 29/20 A2985 RMK A01 T02910204  RH  060%=      5-min Rain = 0
KCL2 151648Z 20017KT 29/20 A2985 RMK A01 T02910204  RH  060%=      5-min Rain = 0
KCL2 151649Z 19017KT 29/20 A2985 RMK A01 T02910204  RH  060%=      5-min Rain = 0
KCL2 151650Z 20015G22KT 29/21 A2985 RMK A01 T02910205  RH  060%=      5-min Rain = 0
KCL2 151651Z 20014G19KT 29/21 A2985 RMK A01 T02910208  RH  061%=      5-min Rain = 0
KCL2 151652Z 21018KT 29/21 A2985 RMK A01 T02930206  RH  059%=      5-min Rain = 0
KCL2 151653Z 20016G22KT 29/21 A2985 RMK A01 T02930205  RH  059%=      5-min Rain = 0
KCL2 151654Z 19016G21KT 29/21 A2985 RMK A01 T02920206  RH  060%=      5-min Rain = 0
KCL2 151655Z 20016KT 29/21 A2985 RMK A01 T02930207  RH  060%=      5-min Rain = 0
KCL2 151656Z 19014KT 29/21 A2985 RMK A01 T02930205  RH  059%=      5-min Rain = 0
KCL2 151657Z 19012KT 29/21 A2986 RMK A01 T02930207  RH  060%=      5-min Rain = 0
KCL2 151658Z 19015KT 30/21 A2985 RMK A01 T02950207  RH  059%=      5-min Rain = 0
KCL2 151659Z 20013KT 30/21 A2985 RMK A01 T02950208  RH  059%=      5-min Rain = 0
KCL2 151700Z 18012KT 30/21 A2985 RMK A01 T02950210  RH  060%=      5-min Rain = 0
KCL2 151701Z 17014KT 30/21 A2985 RMK A01 T02970209  RH  059%=      5-min Rain = 0
KCL2 151702Z 18015G20KT 30/21 A2985 RMK A01 T02970212  RH  060%=      5-min Rain = 0
KCL2 151703Z 19016KT 30/21 A2985 RMK A01 T02980210  RH  059%=      5-min Rain = 0
KCL2 151704Z 19016G21KT 30/21 A2985 RMK A01 T02970211  RH  060%=      5-min Rain = 0
KCL2 151705Z 18015KT 30/21 A2985 RMK A01 T02960210  RH  060%=      5-min Rain = 0
KCL2 151706Z 19017G24KT 30/21 A2985 RMK A01 T02960209  RH  060%=      5-min Rain = 0
KCL2 151707Z 18014KT 29/21 A2985 RMK A01 T02940211  RH  061%=      5-min Rain = 0
KCL2 151708Z 20014KT 30/21 A2985 RMK A01 T02960213  RH  061%=      5-min Rain = 0
KCL2 151709Z 19015KT 30/21 A2985 RMK A01 T02980211  RH  059%=      5-min Rain = 0
KCL2 151710Z 19018G24KT 30/21 A2985 RMK A01 T02970210  RH  059%=      5-min Rain = 0
KCL2 151711Z 19016G21KT 30/21 A2985 RMK A01 T02960211  RH  060%=      5-min Rain = 0
KCL2 151712Z 19013KT 30/21 A2985 RMK A01 T02970212  RH  060%=      5-min Rain = 0
KCL2 151713Z 20014KT 30/21 A2985 RMK A01 T02990214  RH  060%=      5-min Rain = 0
KCL2 151714Z 20014KT 30/21 A2985 RMK A01 T03000211  RH  059%=      5-min Rain = 0
KCL2 151715Z 18012KT 30/21 A2985 RMK A01 T03000214  RH  060%=      5-min Rain = 0
KCL2 151716Z 20013G18KT 30/21 A2985 RMK A01 T03000214  RH  060%=      5-min Rain = 0
KCL2 151717Z 21016KT 30/21 A2985 RMK A01 T03010212  RH  059%=      5-min Rain = 0
KCL2 151718Z 20014KT 30/21 A2985 RMK A01 T03020209  RH  058%=      5-min Rain = 0
KCL2 151719Z 19014KT 30/21 A2985 RMK A01 T03010210  RH  058%=      5-min Rain = 0
KCL2 151720Z 18018KT 30/21 A2985 RMK A01 T03010211  RH  059%=      5-min Rain = 0
KCL2 151721Z 18015G21KT 30/21 A2985 RMK A01 T03000210  RH  058%=      5-min Rain = 0
KCL2 151722Z 19016KT 30/21 A2985 RMK A01 T03000210  RH  059%=      5-min Rain = 0
KCL2 151723Z 20017KT 30/21 A2985 RMK A01 T03000210  RH  058%=      5-min Rain = 0
KCL2 151724Z 20014KT 30/21 A2985 RMK A01 T03000211  RH  059%=      5-min Rain = 0
KCL2 151725Z 20019KT 30/21 A2985 RMK A01 T03010211  RH  058%=      5-min Rain = 0
KCL2 151726Z 20018KT 30/21 A2985 RMK A01 T03020209  RH  058%=      5-min Rain = 0
KCL2 151727Z 19016KT 30/21 A2985 RMK A01 T03010210  RH  058%=      5-min Rain = 0
KCL2 151728Z 18016KT 30/21 A2985 RMK A01 T03010207  RH  057%=      5-min Rain = 0
KCL2 151729Z 20016KT 30/21 A2984 RMK A01 T03010210  RH  058%=      5-min Rain = 0
KCL2 151730Z 21017KT 30/21 A2984 RMK A01 T03040207  RH  056%=      5-min Rain = 0
KCL2 151731Z 20015KT 30/21 A2984 RMK A01 T03030208  RH  057%=      5-min Rain = 0
KCL2 151732Z 19014KT 30/21 A2985 RMK A01 T03040207  RH  056%=      5-min Rain = 0
KCL2 151733Z 19015G20KT 30/21 A2985 RMK A01 T03040211  RH  057%=      5-min Rain = 0
KCL2 151734Z 20015G21KT 31/21 A2985 RMK A01 T03060213  RH  058%=      5-min Rain = 0
KCL2 151735Z 20018KT 31/20 A2985 RMK A01 T03080204  RH  054%=      5-min Rain = 0
KCL2 151736Z 20017G22KT 31/21 A2984 RMK A01 T03050205  RH  055%=      5-min Rain = 0
KCL2 151737Z 19016KT 30/21 A2984 RMK A01 T03040210  RH  057%=      5-min Rain = 0
KCL2 151738Z 19016G21KT 31/21 A2984 RMK A01 T03050207  RH  056%=      5-min Rain = 0
KCL2 151739Z 19019KT 31/21 A2984 RMK A01 T03060205  RH  055%=      5-min Rain = 0
KCL2 151740Z 20016G21KT 31/20 A2984 RMK A01 T03050204  RH  055%=      5-min Rain = 0
KCL2 151741Z 20019KT 31/21 A2984 RMK A01 T03050206  RH  055%=      5-min Rain = 0
KCL2 151742Z 20016KT 31/21 A2984 RMK A01 T03050208  RH  056%=      5-min Rain = 0
KCL2 151743Z 19018KT 31/21 A2984 RMK A01 T03060207  RH  056%=      5-min Rain = 0
KCL2 151744Z 20015G20KT 31/21 A2984 RMK A01 T03060208  RH  056%=      5-min Rain = 0
KCL2 151745Z 20018G23KT 31/21 A2984 RMK A01 T03060210  RH  057%=      5-min Rain = 0
KCL2 151746Z 19015G20KT 31/21 A2984 RMK A01 T03050211  RH  057%=      5-min Rain = 0
KCL2 151747Z 19017G22KT 31/21 A2984 RMK A01 T03060212  RH  057%=      5-min Rain = 0
KCL2 151748Z 19017KT 31/21 A2984 RMK A01 T03070209  RH  056%=      5-min Rain = 0
KCL2 151749Z 19017KT 30/21 A2984 RMK A01 T03040211  RH  058%=      5-min Rain = 0
KCL2 151750Z 19019KT 31/21 A2984 RMK A01 T03050211  RH  057%=      5-min Rain = 0
KCL2 151751Z 19017G22KT 31/21 A2984 RMK A01 T03050209  RH  057%=      5-min Rain = 0
KCL2 151752Z 18018KT 31/21 A2984 RMK A01 T03050209  RH  056%=      5-min Rain = 0
KCL2 151753Z 19016KT 31/21 A2984 RMK A01 T03050209  RH  057%=      5-min Rain = 0
KCL2 151754Z 20018KT 31/21 A2984 RMK A01 T03050209  RH  057%=      5-min Rain = 0
KCL2 151755Z 21014KT 30/21 A2984 RMK A01 T03040210  RH  057%=      5-min Rain = 0
KCL2 151756Z 20013KT 30/21 A2984 RMK A01 T03040212  RH  058%=      5-min Rain = 0
KCL2 151757Z 18011KT 31/22 A2984 RMK A01 T03060216  RH  059%=      5-min Rain = 0
KCL2 151758Z 17015KT 31/21 A2984 RMK A01 T03080214  RH  057%=      5-min Rain = 0
KCL2 151759Z 19015KT 31/22 A2984 RMK A01 T03090215  RH  057%=      5-min Rain = 0
KCL2 151800Z 20016KT 31/22 A2984 RMK A01 T03080215  RH  058%=      5-min Rain = 0
KCL2 151801Z 19016KT 31/21 A2984 RMK A01 T03090214  RH  057%=      5-min Rain = 0
KCL2 151802Z 19014KT 31/21 A2984 RMK A01 T03090214  RH  057%=      5-min Rain = 0
KCL2 151803Z 19018KT 31/21 A2984 RMK A01 T03090212  RH  056%=      5-min Rain = 0
KCL2 151804Z 18019KT 31/21 A2984 RMK A01 T03080210  RH  056%=      5-min Rain = 0
KCL2 151805Z 19015G21KT 31/21 A2984 RMK A01 T03070210  RH  056%=      5-min Rain = 0
KCL2 151806Z 19016KT 31/21 A2984 RMK A01 T03060211  RH  057%=      5-min Rain = 0
KCL2 151807Z 18012G19KT 31/22 A2984 RMK A01 T03070215  RH  058%=      5-min Rain = 0
KCL2 151808Z 18019KT 31/21 A2984 RMK A01 T03080213  RH  057%=      5-min Rain = 0
KCL2 151809Z 18017KT 31/21 A2984 RMK A01 T03080211  RH  056%=      5-min Rain = 0
KCL2 151810Z 19013G18KT 31/21 A2984 RMK A01 T03070213  RH  057%=      5-min Rain = 0
KCL2 151811Z 19016KT 31/21 A2984 RMK A01 T03090214  RH  057%=      5-min Rain = 0
KCL2 151812Z 20017KT 31/21 A2984 RMK A01 T03090213  RH  056%=      5-min Rain = 0
KCL2 151813Z 18015KT 31/22 A2984 RMK A01 T03090215  RH  057%=      5-min Rain = 0
KCL2 151814Z 18018KT 31/21 A2984 RMK A01 T03090211  RH  056%=      5-min Rain = 0
KCL2 151815Z 18018KT 31/21 A2984 RMK A01 T03090210  RH  056%=      5-min Rain = 0
KCL2 151816Z 18015KT 31/21 A2984 RMK A01 T03080212  RH  057%=      5-min Rain = 0
KCL2 151817Z 19015G22KT 31/21 A2984 RMK A01 T03080213  RH  057%=      5-min Rain = 0
KCL2 151818Z 19016G21KT 31/21 A2984 RMK A01 T03080211  RH  056%=      5-min Rain = 0
KCL2 151819Z 18017KT 31/21 A2984 RMK A01 T03080210  RH  056%=      5-min Rain = 0
KCL2 151820Z 19015KT 31/21 A2984 RMK A01 T03090211  RH  056%=      5-min Rain = 0
KCL2 151821Z 19014KT 31/21 A2984 RMK A01 T03090213  RH  056%=      5-min Rain = 0
KCL2 151822Z 19015KT 31/21 A2984 RMK A01 T03110213  RH  056%=      5-min Rain = 0
KCL2 151823Z 19017KT 31/21 A2984 RMK A01 T03100212  RH  056%=      5-min Rain = 0
KCL2 151824Z 19018KT 31/21 A2984 RMK A01 T03100211  RH  056%=      5-min Rain = 0
KCL2 151825Z 18017KT 31/21 A2984 RMK A01 T03090208  RH  055%=      5-min Rain = 0
KCL2 151826Z 18014KT 31/21 A2984 RMK A01 T03080211  RH  056%=      5-min Rain = 0
KCL2 151827Z 18012KT 31/21 A2984 RMK A01 T03080212  RH  057%=      5-min Rain = 0
KCL2 151828Z 20014KT 31/21 A2984 RMK A01 T03100213  RH  057%=      5-min Rain = 0
KCL2 151829Z 19013G18KT 31/22 A2984 RMK A01 T03110215  RH  057%=      5-min Rain = 0
KCL2 151830Z 19016KT 31/21 A2984 RMK A01 T03130214  RH  056%=      5-min Rain = 0
KCL2 151831Z 19018KT 31/21 A2984 RMK A01 T03130213  RH  055%=      5-min Rain = 0
KCL2 151832Z 18017KT 31/21 A2984 RMK A01 T03110211  RH  055%=      5-min Rain = 0
KCL2 151833Z 18015G20KT 31/21 A2984 RMK A01 T03100212  RH  056%=      5-min Rain = 0
KCL2 151834Z 19018KT 31/21 A2984 RMK A01 T03100211  RH  056%=      5-min Rain = 0
KCL2 151835Z 18020G26KT 31/21 A2984 RMK A01 T03100212  RH  056%=      5-min Rain = 0
KCL2 151836Z 19019G24KT 31/21 A2984 RMK A01 T03100211  RH  056%=      5-min Rain = 0
KCL2 151837Z 19016KT 31/21 A2984 RMK A01 T03100213  RH  056%=      5-min Rain = 0
KCL2 151838Z 20019G24KT 31/21 A2984 RMK A01 T03100211  RH  056%=      5-min Rain = 0
KCL2 151839Z 20019KT 31/21 A2984 RMK A01 T03100211  RH  056%=      5-min Rain = 0
KCL2 151840Z 19018KT 31/21 A2984 RMK A01 T03110211  RH  056%=      5-min Rain = 0
KCL2 151841Z 19016G21KT 31/21 A2984 RMK A01 T03110211  RH  055%=      5-min Rain = 0
KCL2 151842Z 20016G21KT 31/21 A2984 RMK A01 T03130214  RH  056%=      5-min Rain = 0
KCL2 151843Z 20017KT 31/21 A2984 RMK A01 T03140212  RH  055%=      5-min Rain = 0
KCL2 151844Z 19013KT 31/22 A2984 RMK A01 T03130215  RH  056%=      5-min Rain = 0
KCL2 151845Z 18017KT 31/22 A2983 RMK A01 T03140215  RH  056%=      5-min Rain = 0
KCL2 151846Z 18018G23KT 32/21 A2983 RMK A01 T03150213  RH  055%=      5-min Rain = 0
KCL2 151847Z 19021KT 31/21 A2983 RMK A01 T03130211  RH  055%=      5-min Rain = 0
KCL2 151848Z 20016G21KT 31/21 A2983 RMK A01 T03120212  RH  056%=      5-min Rain = 0
KCL2 151849Z 20019KT 31/21 A2983 RMK A01 T03120211  RH  055%=      5-min Rain = 0
KCL2 151850Z 20017G23KT 31/21 A2983 RMK A01 T03110210  RH  055%=      5-min Rain = 0
KCL2 151851Z 20018G23KT 31/21 A2983 RMK A01 T03100210  RH  055%=      5-min Rain = 0
KCL2 151852Z 19015G23KT 31/21 A2983 RMK A01 T03100212  RH  056%=      5-min Rain = 0
KCL2 151853Z 19016KT 31/21 A2983 RMK A01 T03120213  RH  056%=      5-min Rain = 0
KCL2 151854Z 19019KT 31/21 A2983 RMK A01 T03140213  RH  055%=      5-min Rain = 0
KCL2 151855Z 20018KT 31/21 A2983 RMK A01 T03140214  RH  056%=      5-min Rain = 0
KCL2 151856Z 19019G24KT 31/21 A2983 RMK A01 T03140213  RH  055%=      5-min Rain = 0
KCL2 151857Z 17018G23KT 32/21 A2983 RMK A01 T03150214  RH  055%=      5-min Rain = 0
KCL2 151858Z 19014KT 32/22 A2983 RMK A01 T03150215  RH  055%=      5-min Rain = 0
KCL2 151859Z 19019G25KT 32/22 A2983 RMK A01 T03160215  RH  055%=      5-min Rain = 0
KCL2 151900Z 19014KT 32/21 A2983 RMK A01 T03170214  RH  055%=      5-min Rain = 0
KCL2 151901Z 20016KT 32/22 A2983 RMK A01 T03170215  RH  055%=      5-min Rain = 0
KCL2 151902Z 18012G17KT 32/22 A2983 RMK A01 T03170216  RH  055%=      5-min Rain = 0
KCL2 151903Z 18015KT 32/22 A2983 RMK A01 T03180216  RH  055%=      5-min Rain = 0
KCL2 151904Z 19013KT 32/22 A2983 RMK A01 T03190215  RH  054%=      5-min Rain = 0
KCL2 151905Z 18015G21KT 32/21 A2983 RMK A01 T03180214  RH  054%=      5-min Rain = 0
KCL2 151906Z 18014G19KT 31/21 A2983 RMK A01 T03140212  RH  055%=      5-min Rain = 0
KCL2 151907Z 18017KT 31/21 A2983 RMK A01 T03110209  RH  055%=      5-min Rain = 0
KCL2 151908Z 17016G23KT 31/21 A2983 RMK A01 T03080208  RH  055%=      5-min Rain = 0
KCL2 151909Z 18016KT 31/21 A2983 RMK A01 T03070209  RH  056%=      5-min Rain = 0
KCL2 151910Z 19013KT 31/21 A2983 RMK A01 T03060209  RH  056%=      5-min Rain = 0
KCL2 151911Z 18014KT 31/21 A2983 RMK A01 T03060209  RH  056%=      5-min Rain = 0
KCL2 151912Z 18013KT 31/21 A2983 RMK A01 T03060211  RH  057%=      5-min Rain = 0
KCL2 151913Z 19013KT 31/21 A2983 RMK A01 T03060211  RH  057%=      5-min Rain = 0
KCL2 151914Z 18013KT 31/21 A2983 RMK A01 T03070212  RH  057%=      5-min Rain = 0
KCL2 151915Z 18011KT 31/22 A2983 RMK A01 T03070215  RH  058%=      5-min Rain = 0
KCL2 151916Z 18012G17KT 31/21 A2982 RMK A01 T03110214  RH  056%=      5-min Rain = 0
KCL2 151917Z 18015KT 31/21 A2982 RMK A01 T03100210  RH  055%=      5-min Rain = 0
KCL2 151918Z 17016KT 31/21 A2982 RMK A01 T03100210  RH  055%=      5-min Rain = 0
KCL2 151919Z 17015G21KT 31/21 A2982 RMK A01 T03090209  RH  055%=      5-min Rain = 0
KCL2 151920Z 18013G19KT 31/22 A2982 RMK A01 T03120217  RH  057%=      5-min Rain = 0
KCL2 151921Z 19018KT 32/22 A2982 RMK A01 T03190215  RH  054%=      5-min Rain = 0
KCL2 151922Z 19018KT 32/21 A2982 RMK A01 T03190211  RH  053%=      5-min Rain = 0
KCL2 151923Z 20017KT 32/21 A2982 RMK A01 T03150210  RH  053%=      5-min Rain = 0
KCL2 151924Z 19012G17KT 31/21 A2982 RMK A01 T03140211  RH  055%=      5-min Rain = 0
KCL2 151925Z 17011G16KT 31/21 A2982 RMK A01 T03140214  RH  055%=      5-min Rain = 0
KCL2 151926Z 19015G21KT 32/21 A2982 RMK A01 T03170214  RH  054%=      5-min Rain = 0
KCL2 151927Z 20017G22KT 32/21 A2982 RMK A01 T03190214  RH  054%=      5-min Rain = 0
KCL2 151928Z 20013KT 32/22 A2982 RMK A01 T03220217  RH  054%=      5-min Rain = 0
KCL2 151929Z 17012KT 33/22 A2982 RMK A01 T03260221  RH  054%=      5-min Rain = 0
KCL2 151930Z 18016KT 33/22 A2982 RMK A01 T03270215  RH  052%=      5-min Rain = 0
KCL2 151931Z 17014G19KT 32/21 A2982 RMK A01 T03220213  RH  053%=      5-min Rain = 0
KCL2 151932Z 17016KT 32/21 A2982 RMK A01 T03180212  RH  053%=      5-min Rain = 0
KCL2 151933Z 17014G21KT 32/21 A2982 RMK A01 T03160211  RH  054%=      5-min Rain = 0
KCL2 151934Z 18011G16KT 32/22 A2982 RMK A01 T03170216  RH  055%=      5-min Rain = 0
KCL2 151935Z 18013G18KT 32/22 A2982 RMK A01 T03190216  RH  054%=      5-min Rain = 0
KCL2 151936Z 20015G21KT 32/22 A2982 RMK A01 T03200215  RH  054%=      5-min Rain = 0
KCL2 151937Z 19018KT 32/21 A2982 RMK A01 T03180211  RH  053%=      5-min Rain = 0
KCL2 151938Z 18013G18KT 31/21 A2982 RMK A01 T03140212  RH  055%=      5-min Rain = 0
KCL2 151939Z 18016KT 31/21 A2982 RMK A01 T03130211  RH  055%=      5-min Rain = 0
KCL2 151940Z 18016KT 31/21 A2982 RMK A01 T03120210  RH  055%=      5-min Rain = 0
KCL2 151941Z 19018G23KT 31/21 A2982 RMK A01 T03100209  RH  055%=      5-min Rain = 0
KCL2 151942Z 18014KT 31/21 A2982 RMK A01 T03090209  RH  055%=      5-min Rain = 0
KCL2 151943Z 18013KT 31/21 A2982 RMK A01 T03090210  RH  056%=      5-min Rain = 0
KCL2 151944Z 19012KT 31/21 A2982 RMK A01 T03090211  RH  056%=      5-min Rain = 0
KCL2 151945Z 19012KT 31/21 A2982 RMK A01 T03090212  RH  056%=      5-min Rain = 0
KCL2 151946Z 18014KT 31/21 A2982 RMK A01 T03100212  RH  056%=      5-min Rain = 0
KCL2 151947Z 18010KT 31/21 A2982 RMK A01 T03100213  RH  056%=      5-min Rain = 0
KCL2 151948Z 18013KT 31/22 A2982 RMK A01 T03140215  RH  056%=      5-min Rain = 0
KCL2 151949Z 19014KT 32/22 A2982 RMK A01 T03180215  RH  054%=      5-min Rain = 0
KCL2 151950Z 19017KT 32/22 A2982 RMK A01 T03210215  RH  054%=      5-min Rain = 0
KCL2 151951Z 18016KT 32/22 A2982 RMK A01 T03230215  RH  053%=      5-min Rain = 0
KCL2 151952Z 20015G23KT 32/22 A2981 RMK A01 T03230215  RH  053%=      5-min Rain = 0
KCL2 151953Z 19019G24KT 32/21 A2981 RMK A01 T03240212  RH  052%=      5-min Rain = 0
KCL2 151954Z 19016KT 32/21 A2981 RMK A01 T03210210  RH  052%=      5-min Rain = 0
KCL2 151955Z 19014KT 32/22 A2981 RMK A01 T03210215  RH  054%=      5-min Rain = 0
KCL2 151956Z 19016G21KT 32/22 A2981 RMK A01 T03240216  RH  053%=      5-min Rain = 0
KCL2 151957Z 18019G24KT 33/21 A2981 RMK A01 T03250214  RH  052%=      5-min Rain = 0
KCL2 151958Z 18018KT 33/21 A2981 RMK A01 T03250213  RH  052%=      5-min Rain = 0
KCL2 151959Z 18016G23KT 32/22 A2981 RMK A01 T03240216  RH  053%=      5-min Rain = 0
KCL2 152000Z 19017KT 33/22 A2981 RMK A01 T03260216  RH  052%=      5-min Rain = 0
KCL2 152001Z 19017KT 33/22 A2981 RMK A01 T03270215  RH  052%=      5-min Rain = 0
KCL2 152002Z 20016KT 33/22 A2981 RMK A01 T03270215  RH  052%=      5-min Rain = 0
KCL2 152003Z 17015KT 33/22 A2981 RMK A01 T03270215  RH  052%=      5-min Rain = 0
KCL2 152004Z 17015KT 33/21 A2981 RMK A01 T03270214  RH  052%=      5-min Rain = 0
KCL2 152005Z 19014KT 33/22 A2981 RMK A01 T03260217  RH  053%=      5-min Rain = 0
KCL2 152006Z 19016KT 33/22 A2981 RMK A01 T03260216  RH  052%=      5-min Rain = 0
KCL2 152007Z 18016KT 32/21 A2981 RMK A01 T03240214  RH  052%=      5-min Rain = 0
KCL2 152008Z 18017KT 32/21 A2981 RMK A01 T03210212  RH  053%=      5-min Rain = 0
KCL2 152009Z 18018G25KT 32/21 A2981 RMK A01 T03190212  RH  053%=      5-min Rain = 0
KCL2 152010Z 19018KT 32/21 A2981 RMK A01 T03180211  RH  053%=      5-min Rain = 0
KCL2 152011Z 18014KT 32/21 A2981 RMK A01 T03160211  RH  054%=      5-min Rain = 0
KCL2 152012Z 17017KT 32/21 A2981 RMK A01 T03160211  RH  054%=      5-min Rain = 0
KCL2 152013Z 18016KT 32/21 A2981 RMK A01 T03160209  RH  053%=      5-min Rain = 0
KCL2 152014Z 17012KT 32/21 A2981 RMK A01 T03170210  RH  053%=      5-min Rain = 0
KCL2 152015Z 17014KT 32/21 A2981 RMK A01 T03190211  RH  053%=      5-min Rain = 0
KCL2 152016Z 18013KT 32/22 A2981 RMK A01 T03210215  RH  054%=      5-min Rain = 0
KCL2 152017Z 17015G21KT 32/21 A2981 RMK A01 T03210214  RH  053%=      5-min Rain = 0
KCL2 152018Z 18018KT 32/21 A2981 RMK A01 T03200212  RH  053%=      5-min Rain = 0
KCL2 152019Z 18012G17KT 32/22 A2981 RMK A01 T03180215  RH  054%=      5-min Rain = 0
KCL2 152020Z 20014KT 32/21 A2981 RMK A01 T03190214  RH  054%=      5-min Rain = 0
KCL2 152021Z 19015KT 32/22 A2981 RMK A01 T03210216  RH  054%=      5-min Rain = 0
KCL2 152022Z 18012KT 32/22 A2981 RMK A01 T03230216  RH  054%=      5-min Rain = 0
KCL2 152023Z 17011KT 32/22 A2981 RMK A01 T03240218  RH  054%=      5-min Rain = 0
KCL2 152024Z 18013KT 33/22 A2981 RMK A01 T03260219  RH  053%=      5-min Rain = 0
KCL2 152025Z 19017KT 33/22 A2981 RMK A01 T03260216  RH  052%=      5-min Rain = 0
KCL2 152026Z 19014KT 33/21 A2981 RMK A01 T03250212  RH  052%=      5-min Rain = 0
KCL2 152027Z 19015KT 32/21 A2981 RMK A01 T03240212  RH  052%=      5-min Rain = 0
KCL2 152028Z 18017G24KT 33/22 A2981 RMK A01 T03250215  RH  052%=      5-min Rain = 0
KCL2 152029Z 19015G20KT 33/21 A2981 RMK A01 T03250214  RH  052%=      5-min Rain = 0
KCL2 152030Z 18013KT 33/22 A2981 RMK A01 T03250217  RH  053%=      5-min Rain = 0
KCL2 152031Z 18015KT 33/21 A2981 RMK A01 T03270214  RH  051%=      5-min Rain = 0
KCL2 152032Z 18017G22KT 33/21 A2981 RMK A01 T03260214  RH  052%=      5-min Rain = 0
KCL2 152033Z 18017G23KT 33/21 A2981 RMK A01 T03250211  RH  051%=      5-min Rain = 0
KCL2 152034Z 18016G21KT 33/21 A2981 RMK A01 T03250214  RH  052%=      5-min Rain = 0
KCL2 152035Z 18017KT 33/21 A2981 RMK A01 T03260212  RH  051%=      5-min Rain = 0
KCL2 152036Z 18019KT 33/21 A2981 RMK A01 T03250210  RH  051%=      5-min Rain = 0
KCL2 152037Z 17014KT 32/21 A2981 RMK A01 T03240214  RH  052%=      5-min Rain = 0
KCL2 152038Z 17015KT 33/21 A2981 RMK A01 T03260213  RH  052%=      5-min Rain = 0
KCL2 152039Z 18015G21KT 33/22 A2981 RMK A01 T03270215  RH  052%=      5-min Rain = 0
KCL2 152040Z 18014KT 33/22 A2981 RMK A01 T03280215  RH  051%=      5-min Rain = 0
KCL2 152041Z 18012KT 33/21 A2981 RMK A01 T03290214  RH  051%=      5-min Rain = 0
KCL2 152042Z 17013G18KT 33/22 A298 RMK A01 T03280215  RH  051%=      5-min Rain = 0
KCL2 152043Z 16015G20KT 33/22 A298 RMK A01 T03280215  RH  052%=      5-min Rain = 0
KCL2 152044Z 17020G29KT 33/21 A298 RMK A01 T03290213  RH  051%=      5-min Rain = 0
KCL2 152045Z 18022G29KT 33/21 A298 RMK A01 T03290212  RH  050%=      5-min Rain = 0
KCL2 152046Z 18016KT 33/21 A298 RMK A01 T03280211  RH  050%=      5-min Rain = 0
KCL2 152047Z 18014G19KT 33/21 A298 RMK A01 T03270214  RH  051%=      5-min Rain = 0
KCL2 152048Z 16012KT 33/22 A298 RMK A01 T03270215  RH  052%=      5-min Rain = 0
KCL2 152049Z 17013G19KT 33/22 A298 RMK A01 T03290216  RH  051%=      5-min Rain = 0
KCL2 152050Z 17018KT 33/21 A298 RMK A01 T03300213  RH  050%=      5-min Rain = 0
KCL2 152051Z 19012G21KT 33/22 A298 RMK A01 T03300220  RH  052%=      5-min Rain = 0
KCL2 152052Z 18019KT 33/22 A298 RMK A01 T03320215  RH  050%=      5-min Rain = 0
KCL2 152053Z 18017KT 33/21 A2981 RMK A01 T03290214  RH  051%=      5-min Rain = 0
KCL2 152054Z 18016G21KT 33/21 A2981 RMK A01 T03280213  RH  051%=      5-min Rain = 0
KCL2 152055Z 17015G20KT 33/21 A2981 RMK A01 T03270213  RH  051%=      5-min Rain = 0
KCL2 152056Z 17015KT 33/21 A2981 RMK A01 T03270213  RH  051%=      5-min Rain = 0
KCL2 152057Z 17017KT 33/21 A298 RMK A01 T03270211  RH  051%=      5-min Rain = 0
KCL2 152058Z 17015G20KT 33/21 A2981 RMK A01 T03270214  RH  051%=      5-min Rain = 0
KCL2 152059Z 17015KT 33/21 A298 RMK A01 T03280212  RH  051%=      5-min Rain = 0
KCL2 152100Z 18020KT 33/21 A298 RMK A01 T03270212  RH  051%=      5-min Rain = 0
KCL2 152101Z 17016KT 33/21 A298 RMK A01 T03270214  RH  051%=      5-min Rain = 0
KCL2 152102Z 19015KT 33/21 A298 RMK A01 T03290214  RH  051%=      5-min Rain = 0
KCL2 152103Z 17012KT 33/22 A2981 RMK A01 T03290217  RH  052%=      5-min Rain = 0
KCL2 152104Z 19010KT 33/22 A298 RMK A01 T03310219  RH  052%=      5-min Rain = 0
KCL2 152105Z 18012KT 33/22 A2981 RMK A01 T03320218  RH  051%=      5-min Rain = 0
KCL2 152106Z 18016G22KT 33/22 A298 RMK A01 T03330217  RH  051%=      5-min Rain = 0
KCL2 152107Z 17018KT 33/21 A298 RMK A01 T03310214  RH  050%=      5-min Rain = 0
KCL2 152108Z 17017KT 33/21 A298 RMK A01 T03290214  RH  051%=      5-min Rain = 0
KCL2 152109Z 17016G22KT 33/21 A298 RMK A01 T03280213  RH  051%=      5-min Rain = 0
KCL2 152110Z 17015KT 33/21 A298 RMK A01 T03290214  RH  051%=      5-min Rain = 0
KCL2 152111Z 18016KT 33/22 A2981 RMK A01 T03300215  RH  051%=      5-min Rain = 0
KCL2 152112Z 19015KT 33/21 A2981 RMK A01 T03310214  RH  050%=      5-min Rain = 0
KCL2 152113Z 18014KT 33/21 A298 RMK A01 T03300212  RH  050%=      5-min Rain = 0
KCL2 152114Z 17014KT 33/21 A298 RMK A01 T03280211  RH  050%=      5-min Rain = 0
KCL2 152115Z 18016KT 33/21 A298 RMK A01 T03270212  RH  051%=      5-min Rain = 0
KCL2 152116Z 17012G17KT 33/22 A298 RMK A01 T03280215  RH  051%=      5-min Rain = 0
KCL2 152117Z 16016G22KT 33/21 A298 RMK A01 T03300212  RH  050%=      5-min Rain = 0
KCL2 152118Z 18013KT 33/21 A298 RMK A01 T03310214  RH  051%=      5-min Rain = 0
KCL2 152119Z 19018KT 33/22 A298 RMK A01 T03320215  RH  051%=      5-min Rain = 0
KCL2 152120Z 19014KT 33/22 A298 RMK A01 T03320215  RH  050%=      5-min Rain = 0
KCL2 152121Z 19016KT 33/21 A298 RMK A01 T03310214  RH  050%=      5-min Rain = 0
KCL2 152122Z 18014KT 33/21 A298 RMK A01 T03300214  RH  051%=      5-min Rain = 0
KCL2 152123Z 17013KT 33/21 A298 RMK A01 T03310213  RH  050%=      5-min Rain = 0
KCL2 152124Z 18013KT 33/21 A298 RMK A01 T03320214  RH  050%=      5-min Rain = 0
KCL2 152125Z 19016KT 33/21 A298 RMK A01 T03320212  RH  049%=      5-min Rain = 0
KCL2 152126Z 18015G22KT 33/21 A298 RMK A01 T03310214  RH  050%=      5-min Rain = 0
KCL2 152127Z 19014KT 33/22 A298 RMK A01 T03320215  RH  051%=      5-min Rain = 0
KCL2 152128Z 17014KT 33/21 A298 RMK A01 T03320213  RH  050%=      5-min Rain = 0
KCL2 152129Z 17015KT 33/21 A298 RMK A01 T03320213  RH  050%=      5-min Rain = 0
KCL2 152130Z 18018KT 33/21 A298 RMK A01 T03320213  RH  050%=      5-min Rain = 0
KCL2 152131Z 19017KT 33/21 A298 RMK A01 T03300210  RH  049%=      5-min Rain = 0
KCL2 152132Z 20013KT 33/21 A298 RMK A01 T03290212  RH  050%=      5-min Rain = 0
KCL2 152133Z 17011KT 33/21 A298 RMK A01 T03290214  RH  051%=      5-min Rain = 0
KCL2 152134Z 17013KT 33/21 A298 RMK A01 T03290212  RH  050%=      5-min Rain = 0
KCL2 152135Z 16014KT 33/21 A298 RMK A01 T03300212  RH  050%=      5-min Rain = 0
KCL2 152136Z 18013KT 33/22 A298 RMK A01 T03310216  RH  051%=      5-min Rain = 0
KCL2 152137Z 18015G20KT 33/22 A298 RMK A01 T03320215  RH  050%=      5-min Rain = 0
KCL2 152138Z 17013KT 33/22 A298 RMK A01 T03310215  RH  050%=      5-min Rain = 0
KCL2 152139Z 17012G17KT 33/21 A298 RMK A01 T03310214  RH  050%=      5-min Rain = 0
KCL2 152140Z 17013KT 33/22 A298 RMK A01 T03310215  RH  051%=      5-min Rain = 0
KCL2 152141Z 17013G18KT 33/21 A298 RMK A01 T03310214  RH  050%=      5-min Rain = 0
KCL2 152142Z 18015KT 33/22 A298 RMK A01 T03320215  RH  050%=      5-min Rain = 0
KCL2 152143Z 17012KT 33/22 A298 RMK A01 T03330215  RH  050%=      5-min Rain = 0
KCL2 152144Z 18016KT 33/22 A298 RMK A01 T03340216  RH  050%=      5-min Rain = 0
KCL2 152145Z 18017KT 33/21 A298 RMK A01 T03340211  RH  049%=      5-min Rain = 0
KCL2 152146Z 19014KT 33/21 A298 RMK A01 T03310213  RH  050%=      5-min Rain = 0
KCL2 152147Z 18015KT 33/21 A298 RMK A01 T03310214  RH  050%=      5-min Rain = 0
KCL2 152148Z 18012KT 33/21 A298 RMK A01 T03310214  RH  050%=      5-min Rain = 0
KCL2 152149Z 17014KT 33/22 A298 RMK A01 T03330215  RH  050%=      5-min Rain = 0
KCL2 152150Z 17017KT 33/21 A298 RMK A01 T03330210  RH  048%=      5-min Rain = 0
KCL2 152151Z 17012KT 33/21 A298 RMK A01 T03320211  RH  049%=      5-min Rain = 0
KCL2 152152Z 18011KT 33/22 A298 RMK A01 T03310216  RH  051%=      5-min Rain = 0
KCL2 152153Z 18014KT 33/22 A298 RMK A01 T03330215  RH  050%=      5-min Rain = 0
KCL2 152154Z 18015KT 33/21 A298 RMK A01 T03330212  RH  049%=      5-min Rain = 0
KCL2 152155Z 17011G17KT 33/22 A298 RMK A01 T03320215  RH  050%=      5-min Rain = 0
KCL2 152156Z 17015KT 33/21 A298 RMK A01 T03330214  RH  050%=      5-min Rain = 0
KCL2 152157Z 16013KT 33/21 A298 RMK A01 T03330213  RH  049%=      5-min Rain = 0
KCL2 152158Z 17012KT 33/22 A298 RMK A01 T03340215  RH  050%=      5-min Rain = 0
KCL2 152159Z 19015G20KT 34/21 A298 RMK A01 T03350213  RH  049%=      5-min Rain = 0
KCL2 152200Z 19012KT 33/21 A298 RMK A01 T03340211  RH  049%=      5-min Rain = 0
KCL2 152201Z 17014KT 33/21 A2979 RMK A01 T03320210  RH  049%=      5-min Rain = 0
KCL2 152202Z 17009KT 33/21 A2979 RMK A01 T03330213  RH  049%=      5-min Rain = 0
KCL2 152203Z 17015KT 33/21 A2979 RMK A01 T03340211  RH  049%=      5-min Rain = 0
KCL2 152204Z 18014KT 33/21 A2979 RMK A01 T03340211  RH  049%=      5-min Rain = 0
KCL2 152205Z 18016KT 33/21 A2979 RMK A01 T03330209  RH  048%=      5-min Rain = 0
KCL2 152206Z 18014KT 33/21 A2979 RMK A01 T03330210  RH  049%=      5-min Rain = 0
KCL2 152207Z 18017KT 33/21 A2979 RMK A01 T03330209  RH  048%=      5-min Rain = 0
KCL2 152208Z 18018KT 33/21 A2979 RMK A01 T03310208  RH  048%=      5-min Rain = 0
KCL2 152209Z 18017KT 33/21 A2979 RMK A01 T03300208  RH  049%=      5-min Rain = 0
KCL2 152210Z 17016G21KT 33/21 A2979 RMK A01 T03300210  RH  049%=      5-min Rain = 0
KCL2 152211Z 17013G19KT 33/21 A2979 RMK A01 T03300209  RH  049%=      5-min Rain = 0
KCL2 152212Z 18013KT 33/21 A2979 RMK A01 T03310211  RH  050%=      5-min Rain = 0
KCL2 152213Z 18016KT 33/21 A2979 RMK A01 T03320211  RH  049%=      5-min Rain = 0
KCL2 152214Z 18017KT 33/21 A2979 RMK A01 T03320208  RH  048%=      5-min Rain = 0
KCL2 152215Z 19013KT 33/21 A2979 RMK A01 T03310210  RH  049%=      5-min Rain = 0
KCL2 152216Z 18009KT 33/21 A2979 RMK A01 T03320213  RH  050%=      5-min Rain = 0
KCL2 152217Z 18010KT 33/22 A2979 RMK A01 T03340218  RH  051%=      5-min Rain = 0
KCL2 152218Z 19012KT 34/21 A2979 RMK A01 T03360213  RH  049%=      5-min Rain = 0
KCL2 152219Z 19015KT 34/21 A2979 RMK A01 T03350212  RH  048%=      5-min Rain = 0
KCL2 152220Z 19015KT 33/21 A2979 RMK A01 T03340210  RH  048%=      5-min Rain = 0
KCL2 152221Z 18015KT 33/21 A2979 RMK A01 T03320208  RH  048%=      5-min Rain = 0
KCL2 152222Z 17016G21KT 33/21 A2979 RMK A01 T03310209  RH  049%=      5-min Rain = 0
KCL2 152223Z 17014G20KT 33/21 A2979 RMK A01 T03310209  RH  049%=      5-min Rain = 0
KCL2 152224Z 17011KT 33/21 A2979 RMK A01 T03320209  RH  049%=      5-min Rain = 0
KCL2 152225Z 17014KT 33/21 A2979 RMK A01 T03320209  RH  049%=      5-min Rain = 0
KCL2 152226Z 17012KT 33/21 A2978 RMK A01 T03320207  RH  048%=      5-min Rain = 0
KCL2 152227Z 17012KT 33/21 A2978 RMK A01 T03310210  RH  049%=      5-min Rain = 0
KCL2 152228Z 17013KT 33/21 A2978 RMK A01 T03320212  RH  049%=      5-min Rain = 0
KCL2 152229Z 17015KT 33/21 A2978 RMK A01 T03320210  RH  049%=      5-min Rain = 0
KCL2 152230Z 18014KT 33/21 A2978 RMK A01 T03320209  RH  049%=      5-min Rain = 0
KCL2 152231Z 17012G17KT 33/21 A2978 RMK A01 T03310211  RH  049%=      5-min Rain = 0
KCL2 152232Z 17015G21KT 33/21 A2978 RMK A01 T03310209  RH  049%=      5-min Rain = 0
KCL2 152233Z 17015G20KT 33/21 A2978 RMK A01 T03320208  RH  048%=      5-min Rain = 0
KCL2 152234Z 17014KT 33/21 A2978 RMK A01 T03320210  RH  049%=      5-min Rain = 0
KCL2 152235Z 17015KT 33/21 A2978 RMK A01 T03330208  RH  048%=      5-min Rain = 0
KCL2 152236Z 18013G18KT 33/21 A2978 RMK A01 T03330210  RH  049%=      5-min Rain = 0
KCL2 152237Z 17012G17KT 33/21 A2978 RMK A01 T03320210  RH  049%=      5-min Rain = 0
KCL2 152238Z 18014G19KT 33/21 A2978 RMK A01 T03330210  RH  049%=      5-min Rain = 0
KCL2 152239Z 18017G24KT 33/21 A2978 RMK A01 T03320208  RH  048%=      5-min Rain = 0
KCL2 152240Z 18018G24KT 33/21 A2978 RMK A01 T03300208  RH  049%=      5-min Rain = 0
KCL2 152241Z 18017G22KT 33/21 A2978 RMK A01 T03300208  RH  049%=      5-min Rain = 0
KCL2 152242Z 17017G23KT 33/21 A2978 RMK A01 T03290208  RH  049%=      5-min Rain = 0
KCL2 152243Z 18019KT 33/21 A2978 RMK A01 T03300206  RH  048%=      5-min Rain = 0
KCL2 152244Z 18015KT 33/21 A2978 RMK A01 T03290208  RH  049%=      5-min Rain = 0
KCL2 152245Z 18018KT 33/21 A2977 RMK A01 T03290207  RH  049%=      5-min Rain = 0
KCL2 152246Z 17017KT 33/21 A2977 RMK A01 T03290207  RH  049%=      5-min Rain = 0
KCL2 152247Z 16014G19KT 33/21 A2977 RMK A01 T03280207  RH  049%=      5-min Rain = 0
KCL2 152248Z 17016KT 33/21 A2977 RMK A01 T03290206  RH  048%=      5-min Rain = 0
KCL2 152249Z 17018G23KT 33/21 A2977 RMK A01 T03300208  RH  049%=      5-min Rain = 0
KCL2 152250Z 17017KT 33/21 A2977 RMK A01 T03300206  RH  048%=      5-min Rain = 0
KCL2 152251Z 17018KT 33/21 A2977 RMK A01 T03290206  RH  048%=      5-min Rain = 0
KCL2 152252Z 17015G21KT 33/21 A2977 RMK A01 T03290206  RH  048%=      5-min Rain = 0
KCL2 152253Z 18011KT 33/21 A2977 RMK A01 T03280209  RH  050%=      5-min Rain = 0
KCL2 152254Z 17015G21KT 33/21 A2977 RMK A01 T03290209  RH  049%=      5-min Rain = 0
KCL2 152255Z 17017G22KT 33/21 A2977 RMK A01 T03300207  RH  048%=      5-min Rain = 0
KCL2 152256Z 17014G19KT 33/21 A2977 RMK A01 T03300208  RH  049%=      5-min Rain = 0
KCL2 152257Z 17016G23KT 33/21 A2977 RMK A01 T03300208  RH  049%=      5-min Rain = 0
KCL2 152258Z 17015KT 33/21 A2977 RMK A01 T03300207  RH  048%=      5-min Rain = 0
KCL2 152259Z 16014G21KT 33/21 A2977 RMK A01 T03300207  RH  049%=      5-min Rain = 0
KCL2 152300Z 16016G21KT 33/21 A2977 RMK A01 T03300207  RH  048%=      5-min Rain = 0
KCL2 152301Z 16015KT 33/21 A2977 RMK A01 T03310206  RH  048%=      5-min Rain = 0
KCL2 152302Z 16016KT 33/21 A2977 RMK A01 T03310207  RH  048%=      5-min Rain = 0
KCL2 152303Z 17015KT 33/21 A2977 RMK A01 T03310207  RH  048%=      5-min Rain = 0
KCL2 152304Z 18013KT 33/21 A2977 RMK A01 T03310209  RH  049%=      5-min Rain = 0
KCL2 152305Z 18016KT 33/21 A2977 RMK A01 T03310208  RH  049%=      5-min Rain = 0
KCL2 152306Z 18017KT 33/21 A2976 RMK A01 T03300208  RH  049%=      5-min Rain = 0
KCL2 152307Z 18016G21KT 33/21 A2977 RMK A01 T03300207  RH  048%=      5-min Rain = 0
KCL2 152308Z 18013G18KT 33/21 A2976 RMK A01 T03290208  RH  049%=      5-min Rain = 0
KCL2 152309Z 18015KT 33/21 A2976 RMK A01 T03290208  RH  049%=      5-min Rain = 0
KCL2 152310Z 18017KT 33/21 A2976 RMK A01 T03290208  RH  049%=      5-min Rain = 0
KCL2 152311Z 17015G20KT 33/21 A2976 RMK A01 T03290208  RH  049%=      5-min Rain = 0
KCL2 152312Z 18016G21KT 33/21 A2976 RMK A01 T03290206  RH  048%=      5-min Rain = 0
KCL2 152313Z 18015G20KT 33/21 A2976 RMK A01 T03300207  RH  049%=      5-min Rain = 0
KCL2 152314Z 18015KT 33/21 A2976 RMK A01 T03290209  RH  049%=      5-min Rain = 0
KCL2 152315Z 18017KT 33/21 A2976 RMK A01 T03290208  RH  049%=      5-min Rain = 0
KCL2 152316Z 17016KT 33/21 A2976 RMK A01 T03280206  RH  049%=      5-min Rain = 0
KCL2 152317Z 17016G21KT 33/21 A2976 RMK A01 T03280205  RH  049%=      5-min Rain = 0
KCL2 152318Z 18015KT 33/21 A2976 RMK A01 T03280206  RH  049%=      5-min Rain = 0
KCL2 152319Z 17013G18KT 33/21 A2976 RMK A01 T03280207  RH  049%=      5-min Rain = 0
KCL2 152320Z 18015G21KT 33/21 A2976 RMK A01 T03290209  RH  050%=      5-min Rain = 0
KCL2 152321Z 17016KT 33/21 A2976 RMK A01 T03290208  RH  049%=      5-min Rain = 0
KCL2 152322Z 17016KT 33/21 A2975 RMK A01 T03280208  RH  049%=      5-min Rain = 0
KCL2 152323Z 18012KT 33/21 A2975 RMK A01 T03280210  RH  050%=      5-min Rain = 0
KCL2 152324Z 18014G19KT 33/21 A2976 RMK A01 T03280210  RH  050%=      5-min Rain = 0
KCL2 152325Z 18019KT 33/21 A2976 RMK A01 T03280209  RH  050%=      5-min Rain = 0
KCL2 152326Z 18017KT 33/21 A2976 RMK A01 T03270210  RH  050%=      5-min Rain = 0
KCL2 152327Z 17012G20KT 33/21 A2976 RMK A01 T03270211  RH  051%=      5-min Rain = 0
KCL2 152328Z 17012KT 33/21 A2975 RMK A01 T03270211  RH  051%=      5-min Rain = 0
KCL2 152329Z 17011KT 33/21 A2976 RMK A01 T03270212  RH  051%=      5-min Rain = 0
KCL2 152330Z 18013KT 33/21 A2976 RMK A01 T03270213  RH  051%=      5-min Rain = 0
KCL2 152331Z 17016KT 33/21 A2975 RMK A01 T03280211  RH  050%=      5-min Rain = 0
KCL2 152332Z 17012KT 33/21 A2975 RMK A01 T03280211  RH  050%=      5-min Rain = 0
KCL2 152333Z 18012KT 33/21 A2976 RMK A01 T03280212  RH  051%=      5-min Rain = 0
KCL2 152334Z 17007KT 33/21 A2975 RMK A01 T03270214  RH  051%=      5-min Rain = 0
KCL2 152335Z 17011G16KT 33/22 A2975 RMK A01 T03280215  RH  051%=      5-min Rain = 0
KCL2 152336Z 16014KT 33/21 A2975 RMK A01 T03280212  RH  050%=      5-min Rain = 0
KCL2 152337Z 17013KT 33/21 A2975 RMK A01 T03280213  RH  051%=      5-min Rain = 0
KCL2 152338Z 17012KT 33/21 A2975 RMK A01 T03270212  RH  051%=      5-min Rain = 0
KCL2 152339Z 17010KT 33/21 A2975 RMK A01 T03270212  RH  051%=      5-min Rain = 0
KCL2 152340Z 18010KT 33/21 A2975 RMK A01 T03260214  RH  052%=      5-min Rain = 0
KCL2 152341Z 16013G18KT 33/21 A2975 RMK A01 T03270212  RH  051%=      5-min Rain = 0
KCL2 152342Z 17014G20KT 33/21 A2975 RMK A01 T03270211  RH  051%=      5-min Rain = 0
KCL2 152343Z 18015KT 33/21 A2975 RMK A01 T03260211  RH  051%=      5-min Rain = 0
KCL2 152344Z 18013KT 33/21 A2975 RMK A01 T03260212  RH  051%=      5-min Rain = 0
KCL2 152345Z 18011KT 33/21 A2975 RMK A01 T03250213  RH  052%=      5-min Rain = 0
KCL2 152346Z 18015G20KT 33/21 A2975 RMK A01 T03250213  RH  052%=      5-min Rain = 0
KCL2 152347Z 17014KT 33/21 A2975 RMK A01 T03250211  RH  051%=      5-min Rain = 0
KCL2 152348Z 18010KT 33/21 A2975 RMK A01 T03250214  RH  052%=      5-min Rain = 0
KCL2 152349Z 18011KT 33/21 A2975 RMK A01 T03250214  RH  052%=      5-min Rain = 0
KCL2 152350Z 17012KT 33/21 A2975 RMK A01 T03250213  RH  052%=      5-min Rain = 0
KCL2 152351Z 17011KT 33/21 A2975 RMK A01 T03250212  RH  052%=      5-min Rain = 0
KCL2 152352Z 18010KT 33/21 A2975 RMK A01 T03250213  RH  052%=      5-min Rain = 0
KCL2 152353Z 18015G21KT 32/21 A2975 RMK A01 T03240212  RH  052%=      5-min Rain = 0
KCL2 152354Z 18017G23KT 32/21 A2975 RMK A01 T03240208  RH  050%=      5-min Rain = 0
KCL2 152355Z 18019KT 32/21 A2975 RMK A01 T03230206  RH  050%=      5-min Rain = 0
KCL2 152356Z 18015KT 32/21 A2975 RMK A01 T03230206  RH  050%=      5-min Rain = 0
KCL2 152357Z 18015G20KT 32/21 A2975 RMK A01 T03230207  RH  050%=      5-min Rain = 0
KCL2 152358Z 18017KT 32/21 A2975 RMK A01 T03230205  RH  050%=      5-min Rain = 0
KCL2 152359Z 18014KT 32/21 A2975 RMK A01 T03220206  RH  050%=      5-min Rain = 0
KCL2 160000Z 17012KT 32/21 A2975 RMK A01 T03220209  RH  051%=      5-min Rain = 0
KCL2 160001Z 17012KT 32/21 A2975 RMK A01 T03220210  RH  052%=      5-min Rain = 0
KCL2 160002Z 17014G19KT 32/21 A2975 RMK A01 T03220210  RH  052%=      5-min Rain = 0
KCL2 160003Z 18018KT 32/21 A2975 RMK A01 T03220207  RH  051%=      5-min Rain = 0
KCL2 160004Z 17014KT 32/21 A2975 RMK A01 T03220208  RH  051%=      5-min Rain = 0
KCL2 160005Z 17013KT 32/21 A2975 RMK A01 T03210209  RH  051%=      5-min Rain = 0
KCL2 160006Z 17016KT 32/21 A2975 RMK A01 T03210208  RH  051%=      5-min Rain = 0
KCL2 160007Z 17015G20KT 32/21 A2975 RMK A01 T03210206  RH  051%=      5-min Rain = 0
KCL2 160008Z 17016G23KT 32/21 A2975 RMK A01 T03200206  RH  051%=      5-min Rain = 0
KCL2 160009Z 18017KT 32/20 A2975 RMK A01 T03180204  RH  051%=      5-min Rain = 0
KCL2 160010Z 18013KT 32/21 A2975 RMK A01 T03170206  RH  052%=      5-min Rain = 0
KCL2 160011Z 18013KT 32/21 A2976 RMK A01 T03170207  RH  052%=      5-min Rain = 0
KCL2 160012Z 17013G22KT 32/21 A2976 RMK A01 T03170207  RH  052%=      5-min Rain = 0
KCL2 160013Z 17019KT 32/21 A2976 RMK A01 T03180206  RH  052%=      5-min Rain = 0
KCL2 160014Z 18016G22KT 32/20 A2976 RMK A01 T03180204  RH  051%=      5-min Rain = 0
KCL2 160015Z 18017KT 32/21 A2976 RMK A01 T03180206  RH  052%=      5-min Rain = 0
KCL2 160016Z 17018KT 32/21 A2976 RMK A01 T03180205  RH  051%=      5-min Rain = 0
KCL2 160017Z 17017G22KT 32/21 A2976 RMK A01 T03180205  RH  051%=      5-min Rain = 0
KCL2 160018Z 17012KT 32/21 A2976 RMK A01 T03180206  RH  052%=      5-min Rain = 0
KCL2 160019Z 17015G22KT 32/21 A2976 RMK A01 T03180207  RH  052%=      5-min Rain = 0
KCL2 160020Z 18016G21KT 32/21 A2976 RMK A01 T03180205  RH  051%=      5-min Rain = 0
KCL2 160021Z 18014KT 32/21 A2976 RMK A01 T03180206  RH  052%=      5-min Rain = 0
KCL2 160022Z 18018KT 32/21 A2976 RMK A01 T03180205  RH  051%=      5-min Rain = 0
KCL2 160023Z 17017G22KT 32/20 A2976 RMK A01 T03170204  RH  051%=      5-min Rain = 0
KCL2 160024Z 17015KT 32/20 A2976 RMK A01 T03160204  RH  052%=      5-min Rain = 0
KCL2 160025Z 18012KT 32/20 A2977 RMK A01 T03150204  RH  052%=      5-min Rain = 0
KCL2 160026Z 18015G20KT 31/21 A2977 RMK A01 T03140205  RH  052%=      5-min Rain = 0
KCL2 160027Z 17015KT 31/20 A2977 RMK A01 T03130204  RH  052%=      5-min Rain = 0
KCL2 160028Z 17017KT 31/20 A2977 RMK A01 T03130203  RH  052%=      5-min Rain = 0
KCL2 160029Z 17017KT 31/20 A2977 RMK A01 T03130202  RH  052%=      5-min Rain = 0
KCL2 160030Z 17013KT 31/20 A2977 RMK A01 T03130203  RH  052%=      5-min Rain = 0
KCL2 160031Z 17017KT 31/20 A2977 RMK A01 T03130203  RH  052%=      5-min Rain = 0
KCL2 160032Z 17018KT 31/20 A2977 RMK A01 T03130201  RH  052%=      5-min Rain = 0
KCL2 160033Z 17015KT 31/20 A2977 RMK A01 T03130202  RH  052%=      5-min Rain = 0
KCL2 160034Z 17014KT 31/20 A2977 RMK A01 T03130203  RH  052%=      5-min Rain = 0
KCL2 160035Z 17015G20KT 31/20 A2977 RMK A01 T03120203  RH  052%=      5-min Rain = 0
KCL2 160036Z 17014KT 31/20 A2977 RMK A01 T03120203  RH  052%=      5-min Rain = 0
KCL2 160037Z 17011KT 31/20 A2977 RMK A01 T03120204  RH  053%=      5-min Rain = 0
KCL2 160038Z 17011KT 31/21 A2977 RMK A01 T03120205  RH  053%=      5-min Rain = 0
KCL2 160039Z 18011KT 31/21 A2977 RMK A01 T03120206  RH  053%=      5-min Rain = 0
KCL2 160040Z 18013KT 31/21 A2977 RMK A01 T03120205  RH  053%=      5-min Rain = 0
KCL2 160041Z 18012KT 31/21 A2977 RMK A01 T03110206  RH  053%=      5-min Rain = 0
KCL2 160042Z 17012KT 31/21 A2977 RMK A01 T03110206  RH  054%=      5-min Rain = 0
KCL2 160043Z 18013G19KT 31/21 A2977 RMK A01 T03110205  RH  053%=      5-min Rain = 0
KCL2 160044Z 17011KT 31/21 A2977 RMK A01 T03110206  RH  054%=      5-min Rain = 0
KCL2 160045Z 18013G18KT 31/21 A2977 RMK A01 T03110205  RH  053%=      5-min Rain = 0
KCL2 160046Z 17015KT 31/20 A2977 RMK A01 T03110204  RH  053%=      5-min Rain = 0
KCL2 160047Z 18016G21KT 31/20 A2977 RMK A01 T03110203  RH  052%=      5-min Rain = 0
KCL2 160048Z 17011KT 31/20 A2977 RMK A01 T03110203  RH  052%=      5-min Rain = 0
KCL2 160049Z 17013KT 31/20 A2978 RMK A01 T03110203  RH  053%=      5-min Rain = 0
KCL2 160050Z 18011KT 31/20 A2978 RMK A01 T03110204  RH  053%=      5-min Rain = 0
KCL2 160051Z 18010KT 31/20 A2978 RMK A01 T03110204  RH  053%=      5-min Rain = 0
KCL2 160052Z 17011KT 31/20 A2978 RMK A01 T03100204  RH  053%=      5-min Rain = 0
KCL2 160053Z 17011KT 31/20 A2978 RMK A01 T03090202  RH  053%=      5-min Rain = 0
KCL2 160054Z 18010KT 31/20 A2978 RMK A01 T03090203  RH  053%=      5-min Rain = 0
KCL2 160055Z 17012G17KT 31/20 A2977 RMK A01 T03080203  RH  054%=      5-min Rain = 0
KCL2 160056Z 18012G17KT 31/20 A2978 RMK A01 T03070201  RH  053%=      5-min Rain = 0
KCL2 160057Z 18015KT 31/20 A2977 RMK A01 T03070199  RH  053%=      5-min Rain = 0
KCL2 160058Z 18012G17KT 31/20 A2978 RMK A01 T03070199  RH  052%=      5-min Rain = 0
KCL2 160059Z 18010KT 31/20 A2978 RMK A01 T03070201  RH  053%=      5-min Rain = 0
KCL2 160100Z 18010KT 31/20 A2978 RMK A01 T03060200  RH  053%=      5-min Rain = 0
KCL2 160101Z 18010KT 31/20 A2978 RMK A01 T03060200  RH  053%=      5-min Rain = 0
KCL2 160102Z 18013KT 31/20 A2977 RMK A01 T03050198  RH  053%=      5-min Rain = 0
KCL2 160103Z 17011KT 31/20 A2977 RMK A01 T03050198  RH  053%=      5-min Rain = 0
KCL2 160104Z 18013G18KT 31/20 A2977 RMK A01 T03060198  RH  052%=      5-min Rain = 0
KCL2 160105Z 17012KT 31/20 A2977 RMK A01 T03060198  RH  052%=      5-min Rain = 0
KCL2 160106Z 17013KT 31/20 A2977 RMK A01 T03060197  RH  052%=      5-min Rain = 0
KCL2 160107Z 18011KT 31/20 A2978 RMK A01 T03070197  RH  052%=      5-min Rain = 0
KCL2 160108Z 18013KT 31/20 A2977 RMK A01 T03070198  RH  052%=      5-min Rain = 0
KCL2 160109Z 17012G17KT 31/20 A2977 RMK A01 T03060197  RH  052%=      5-min Rain = 0
KCL2 160110Z 17010KT 31/20 A2978 RMK A01 T03060198  RH  052%=      5-min Rain = 0
KCL2 160111Z 18010KT 31/20 A2978 RMK A01 T03050198  RH  053%=      5-min Rain = 0
KCL2 160112Z 18012KT 30/20 A2978 RMK A01 T03040197  RH  053%=      5-min Rain = 0
KCL2 160113Z 18011KT 31/20 A2978 RMK A01 T03050197  RH  053%=      5-min Rain = 0
KCL2 160114Z 18010KT 30/20 A2978 RMK A01 T03040197  RH  053%=      5-min Rain = 0
KCL2 160115Z 18012G17KT 30/20 A2978 RMK A01 T03040197  RH  053%=      5-min Rain = 0
KCL2 160116Z 18009KT 30/20 A2978 RMK A01 T03040197  RH  053%=      5-min Rain = 0
KCL2 160117Z 18014KT 30/20 A2978 RMK A01 T03040197  RH  053%=      5-min Rain = 0
KCL2 160118Z 17010KT 30/20 A2978 RMK A01 T03030197  RH  053%=      5-min Rain = 0
KCL2 160119Z 17009G14KT 30/20 A2978 RMK A01 T03030198  RH  053%=      5-min Rain = 0
KCL2 160120Z 18013KT 30/20 A2978 RMK A01 T03020197  RH  053%=      5-min Rain = 0
KCL2 160121Z 17009KT 30/20 A2978 RMK A01 T03020198  RH  053%=      5-min Rain = 0
KCL2 160122Z 17010KT 30/20 A2978 RMK A01 T03020197  RH  054%=      5-min Rain = 0
KCL2 160123Z 17012KT 30/20 A2978 RMK A01 T03020197  RH  053%=      5-min Rain = 0
KCL2 160124Z 17011KT 30/20 A2978 RMK A01 T03020196  RH  053%=      5-min Rain = 0
KCL2 160125Z 17009KT 30/20 A2978 RMK A01 T03020196  RH  053%=      5-min Rain = 0
KCL2 160126Z 17009KT 30/20 A2978 RMK A01 T03020197  RH  053%=      5-min Rain = 0
KCL2 160127Z 18008KT 30/20 A2979 RMK A01 T03010197  RH  054%=      5-min Rain = 0
KCL2 160128Z 17007KT 30/20 A2979 RMK A01 T02990197  RH  054%=      5-min Rain = 0
KCL2 160129Z 17010KT 30/20 A2979 RMK A01 T02990197  RH  054%=      5-min Rain = 0
KCL2 160130Z 17012KT 30/20 A2979 RMK A01 T02990196  RH  054%=      5-min Rain = 0
KCL2 160131Z 17009KT 30/20 A2979 RMK A01 T02990196  RH  054%=      5-min Rain = 0
KCL2 160132Z 18010KT 30/20 A2979 RMK A01 T03000196  RH  054%=      5-min Rain = 0
KCL2 160133Z 17009KT 30/20 A2979 RMK A01 T03000196  RH  054%=      5-min Rain = 0
KCL2 160134Z 18009KT 30/20 A2978 RMK A01 T02990196  RH  054%=      5-min Rain = 0
KCL2 160135Z 17007KT 30/20 A2978 RMK A01 T02990197  RH  054%=      5-min Rain = 0
KCL2 160136Z 17009KT 30/20 A2978 RMK A01 T02980197  RH  055%=      5-min Rain = 0
KCL2 160137Z 17009KT 30/20 A2978 RMK A01 T02970197  RH  055%=      5-min Rain = 0
KCL2 160138Z 17008G13KT 30/20 A2978 RMK A01 T02970197  RH  055%=      5-min Rain = 0
KCL2 160139Z 16008KT 30/20 A2978 RMK A01 T02960197  RH  055%=      5-min Rain = 0
KCL2 160140Z 17008KT 30/20 A2978 RMK A01 T02950197  RH  055%=      5-min Rain = 0
KCL2 160141Z 17010KT 30/20 A2978 RMK A01 T02950197  RH  055%=      5-min Rain = 0
KCL2 160142Z 18012KT 30/20 A2978 RMK A01 T02950196  RH  055%=      5-min Rain = 0
KCL2 160143Z 16009KT 30/20 A2978 RMK A01 T02960196  RH  055%=      5-min Rain = 0
KCL2 160144Z 17009KT 30/20 A2978 RMK A01 T02960196  RH  055%=      5-min Rain = 0
KCL2 160145Z 17009G14KT 30/20 A2978 RMK A01 T02960196  RH  055%=      5-min Rain = 0
KCL2 160146Z 17010KT 30/20 A2978 RMK A01 T02960196  RH  055%=      5-min Rain = 0
KCL2 160147Z 17009KT 30/20 A2978 RMK A01 T02960196  RH  055%=      5-min Rain = 0
KCL2 160148Z 16009KT 30/20 A2978 RMK A01 T02960197  RH  055%=      5-min Rain = 0
KCL2 160149Z 16008KT 30/20 A2978 RMK A01 T02950197  RH  055%=      5-min Rain = 0
KCL2 160150Z 17009KT 30/20 A2978 RMK A01 T02950197  RH  056%=      5-min Rain = 0
KCL2 160151Z 16007KT 29/20 A2978 RMK A01 T02940197  RH  056%=      5-min Rain = 0
KCL2 160152Z 17009G14KT 29/20 A2978 RMK A01 T02940197  RH  056%=      5-min Rain = 0
KCL2 160153Z 16011KT 29/20 A2978 RMK A01 T02940196  RH  056%=      5-min Rain = 0
KCL2 160154Z 17011KT 29/20 A2978 RMK A01 T02940196  RH  056%=      5-min Rain = 0
KCL2 160155Z 17010KT 29/20 A2978 RMK A01 T02940197  RH  056%=      5-min Rain = 0
KCL2 160156Z 17012KT 30/20 A2978 RMK A01 T02950197  RH  056%=      5-min Rain = 0
KCL2 160157Z 16010KT 30/20 A2978 RMK A01 T02950197  RH  056%=      5-min Rain = 0
KCL2 160158Z 17011KT 30/20 A2978 RMK A01 T02950197  RH  056%=      5-min Rain = 0
KCL2 160159Z 16010KT 30/20 A2978 RMK A01 T02950197  RH  056%=      5-min Rain = 0
KCL2 160200Z 17011KT 29/20 A2978 RMK A01 T02940197  RH  056%=      5-min Rain = 0
KCL2 160201Z 17009KT 29/20 A2979 RMK A01 T02940197  RH  056%=      5-min Rain = 0
KCL2 160202Z 17010KT 29/20 A2979 RMK A01 T02930197  RH  056%=      5-min Rain = 0
KCL2 160203Z 17011KT 29/20 A2979 RMK A01 T02930197  RH  056%=      5-min Rain = 0
KCL2 160204Z 17011KT 29/20 A2979 RMK A01 T02930197  RH  056%=      5-min Rain = 0
KCL2 160205Z 17011KT 29/20 A2979 RMK A01 T02930197  RH  056%=      5-min Rain = 0
KCL2 160206Z 17011KT 29/20 A2979 RMK A01 T02930197  RH  056%=      5-min Rain = 0
KCL2 160207Z 18010KT 29/20 A2979 RMK A01 T02930197  RH  056%=      5-min Rain = 0
KCL2 160208Z 17008KT 29/20 A2979 RMK A01 T02930198  RH  056%=      5-min Rain = 0
KCL2 160209Z 18010KT 29/20 A2979 RMK A01 T02920198  RH  057%=      5-min Rain = 0
KCL2 160210Z 18010KT 29/20 A2979 RMK A01 T02920198  RH  057%=      5-min Rain = 0
KCL2 160211Z 18010KT 29/20 A2979 RMK A01 T02920198  RH  057%=      5-min Rain = 0
KCL2 160212Z 18009KT 29/20 A2979 RMK A01 T02910198  RH  057%=      5-min Rain = 0
KCL2 160213Z 18009KT 29/20 A298 RMK A01 T02900198  RH  058%=      5-min Rain = 0
KCL2 160214Z 18010KT 29/20 A298 RMK A01 T02900198  RH  058%=      5-min Rain = 0
KCL2 160215Z 18012KT 29/20 A298 RMK A01 T02900197  RH  057%=      5-min Rain = 0
KCL2 160216Z 18010KT 29/20 A298 RMK A01 T02920198  RH  057%=      5-min Rain = 0
KCL2 160217Z 18011KT 29/20 A298 RMK A01 T02920198  RH  057%=      5-min Rain = 0
KCL2 160218Z 18010KT 29/20 A298 RMK A01 T02910198  RH  057%=      5-min Rain = 0
KCL2 160219Z 18010KT 29/20 A298 RMK A01 T02910198  RH  057%=      5-min Rain = 0
KCL2 160220Z 18010KT 29/20 A298 RMK A01 T02910198  RH  057%=      5-min Rain = 0
KCL2 160221Z 18010KT 29/20 A2979 RMK A01 T02900198  RH  057%=      5-min Rain = 0
KCL2 160222Z 18010KT 29/20 A2979 RMK A01 T02900198  RH  057%=      5-min Rain = 0
KCL2 160223Z 18012KT 29/20 A2979 RMK A01 T02900198  RH  058%=      5-min Rain = 0
KCL2 160224Z 18010KT 29/20 A2979 RMK A01 T02900197  RH  057%=      5-min Rain = 0
KCL2 160225Z 18011KT 29/20 A2979 RMK A01 T02900198  RH  057%=      5-min Rain = 0
KCL2 160226Z 18011KT 29/20 A2979 RMK A01 T02900198  RH  058%=      5-min Rain = 0
KCL2 160227Z 17012KT 29/20 A2979 RMK A01 T02890197  RH  058%=      5-min Rain = 0
KCL2 160228Z 18010KT 29/20 A2979 RMK A01 T02890197  RH  058%=      5-min Rain = 0
KCL2 160229Z 18010KT 29/20 A2979 RMK A01 T02890198  RH  058%=      5-min Rain = 0
KCL2 160230Z 18013G18KT 29/20 A2979 RMK A01 T02890197  RH  058%=      5-min Rain = 0
KCL2 160231Z 18013KT 29/20 A2979 RMK A01 T02890196  RH  057%=      5-min Rain = 0
KCL2 160232Z 18011KT 29/20 A2979 RMK A01 T02890196  RH  057%=      5-min Rain = 0
KCL2 160233Z 18010KT 29/20 A2979 RMK A01 T02890197  RH  057%=      5-min Rain = 0
KCL2 160234Z 18012KT 29/20 A298 RMK A01 T02890197  RH  057%=      5-min Rain = 0
KCL2 160235Z 18012G18KT 29/20 A298 RMK A01 T02890197  RH  057%=      5-min Rain = 0
KCL2 160236Z 17013G18KT 29/20 A298 RMK A01 T02890196  RH  057%=      5-min Rain = 0
KCL2 160237Z 18012G17KT 29/20 A298 RMK A01 T02890196  RH  057%=      5-min Rain = 0
KCL2 160238Z 18012KT 29/20 A298 RMK A01 T02890196  RH  057%=      5-min Rain = 0
KCL2 160239Z 18013KT 29/20 A298 RMK A01 T02900197  RH  057%=      5-min Rain = 0
KCL2 160240Z 17012KT 29/20 A298 RMK A01 T02890196  RH  057%=      5-min Rain = 0
KCL2 160241Z 17011KT 29/20 A2979 RMK A01 T02890196  RH  057%=      5-min Rain = 0
KCL2 160242Z 17011KT 29/20 A298 RMK A01 T02890197  RH  057%=      5-min Rain = 0
KCL2 160243Z 17011KT 29/20 A298 RMK A01 T02880196  RH  058%=      5-min Rain = 0
KCL2 160244Z 17012KT 29/20 A298 RMK A01 T02880197  RH  058%=      5-min Rain = 0
KCL2 160245Z 17012KT 29/20 A298 RMK A01 T02880196  RH  058%=      5-min Rain = 0
KCL2 160246Z 17012KT 29/20 A298 RMK A01 T02880197  RH  058%=      5-min Rain = 0
KCL2 160247Z 17010KT 29/20 A298 RMK A01 T02880197  RH  058%=      5-min Rain = 0
KCL2 160248Z 17010KT 29/20 A298 RMK A01 T02880197  RH  058%=      5-min Rain = 0
KCL2 160249Z 18011KT 29/20 A298 RMK A01 T02870197  RH  058%=      5-min Rain = 0
KCL2 160250Z 17014KT 29/20 A298 RMK A01 T02860197  RH  059%=      5-min Rain = 0
KCL2 160251Z 18012KT 29/20 A298 RMK A01 T02860196  RH  058%=      5-min Rain = 0
KCL2 160252Z 17010KT 29/20 A298 RMK A01 T02870197  RH  058%=      5-min Rain = 0
KCL2 160253Z 18013KT 29/20 A298 RMK A01 T02870197  RH  058%=      5-min Rain = 0
KCL2 160254Z 18013KT 29/20 A298 RMK A01 T02860197  RH  058%=      5-min Rain = 0
KCL2 160255Z 18010KT 29/20 A298 RMK A01 T02860197  RH  058%=      5-min Rain = 0
KCL2 160256Z 17012KT 29/20 A298 RMK A01 T02860197  RH  059%=      5-min Rain = 0
KCL2 160257Z 17010KT 29/20 A298 RMK A01 T02860197  RH  059%=      5-min Rain = 0
KCL2 160258Z 17012KT 29/20 A2979 RMK A01 T02860198  RH  059%=      5-min Rain = 0
KCL2 160259Z 18013KT 29/20 A2979 RMK A01 T02850197  RH  059%=      5-min Rain = 0
KCL2 160300Z 18012KT 29/20 A2979 RMK A01 T02850197  RH  059%=      5-min Rain = 0
KCL2 160301Z 18012KT 29/20 A2979 RMK A01 T02850197  RH  059%=      5-min Rain = 0
KCL2 160302Z 18013KT 29/20 A2979 RMK A01 T02850197  RH  059%=      5-min Rain = 0
KCL2 160303Z 18014KT 28/20 A298 RMK A01 T02840197  RH  059%=      5-min Rain = 0
KCL2 160304Z 18014KT 28/20 A298 RMK A01 T02840196  RH  059%=      5-min Rain = 0
KCL2 160305Z 18014KT 29/20 A298 RMK A01 T02850196  RH  059%=      5-min Rain = 0
KCL2 160306Z 18012KT 28/20 A298 RMK A01 T02840197  RH  059%=      5-min Rain = 0
KCL2 160307Z 18013KT 28/20 A298 RMK A01 T02840197  RH  059%=      5-min Rain = 0
KCL2 160308Z 18013G18KT 28/20 A298 RMK A01 T02840197  RH  059%=      5-min Rain = 0
KCL2 160309Z 18013G18KT 28/20 A2979 RMK A01 T02830197  RH  059%=      5-min Rain = 0
KCL2 160310Z 17013KT 28/20 A2979 RMK A01 T02840197  RH  059%=      5-min Rain = 0
KCL2 160311Z 18013KT 28/20 A2979 RMK A01 T02830197  RH  060%=      5-min Rain = 0
KCL2 160312Z 18013KT 28/20 A2979 RMK A01 T02820197  RH  060%=      5-min Rain = 0
KCL2 160313Z 17014G19KT 28/20 A2979 RMK A01 T02820197  RH  060%=      5-min Rain = 0
KCL2 160314Z 18012KT 28/20 A2979 RMK A01 T02820197  RH  060%=      5-min Rain = 0
KCL2 160315Z 18012KT 28/20 A2979 RMK A01 T02820197  RH  060%=      5-min Rain = 0
KCL2 160316Z 18011KT 28/20 A2979 RMK A01 T02820197  RH  060%=      5-min Rain = 0
KCL2 160317Z 17013KT 28/20 A2979 RMK A01 T02810197  RH  060%=      5-min Rain = 0
KCL2 160318Z 17014G21KT 28/20 A2979 RMK A01 T02810197  RH  060%=      5-min Rain = 0
KCL2 160319Z 18015G20KT 28/20 A2979 RMK A01 T02810196  RH  060%=      5-min Rain = 0
KCL2 160320Z 18012KT 28/20 A2979 RMK A01 T02810196  RH  060%=      5-min Rain = 0
KCL2 160321Z 17012KT 28/20 A2979 RMK A01 T02810197  RH  060%=      5-min Rain = 0
KCL2 160322Z 17011KT 28/20 A2979 RMK A01 T02800197  RH  061%=      5-min Rain = 0
KCL2 160323Z 17011KT 28/20 A2979 RMK A01 T02800197  RH  061%=      5-min Rain = 0
KCL2 160324Z 17012KT 28/20 A2979 RMK A01 T02800197  RH  061%=      5-min Rain = 0
KCL2 160325Z 18013KT 28/20 A2979 RMK A01 T02800197  RH  061%=      5-min Rain = 0
KCL2 160326Z 17011KT 28/20 A2979 RMK A01 T02800197  RH  061%=      5-min Rain = 0
KCL2 160327Z 17010KT 28/20 A298 RMK A01 T02790197  RH  061%=      5-min Rain = 0
KCL2 160328Z 17011KT 28/20 A298 RMK A01 T02790197  RH  061%=      5-min Rain = 0
KCL2 160329Z 17010KT 28/20 A298 RMK A01 T02790198  RH  061%=      5-min Rain = 0
KCL2 160330Z 17011KT 28/20 A298 RMK A01 T02780197  RH  062%=      5-min Rain = 0
KCL2 160331Z 17011KT 28/20 A298 RMK A01 T02770198  RH  062%=      5-min Rain = 0
KCL2 160332Z 17013KT 28/20 A298 RMK A01 T02770198  RH  062%=      5-min Rain = 0
KCL2 160333Z 17011KT 28/20 A298 RMK A01 T02770198  RH  062%=      5-min Rain = 0
KCL2 160334Z 17011KT 28/20 A298 RMK A01 T02770198  RH  062%=      5-min Rain = 0
KCL2 160335Z 17014KT 28/20 A298 RMK A01 T02760198  RH  062%=      5-min Rain = 0
KCL2 160336Z 17011KT 28/20 A298 RMK A01 T02760198  RH  062%=      5-min Rain = 0
KCL2 160337Z 17009KT 28/20 A298 RMK A01 T02760198  RH  063%=      5-min Rain = 0
KCL2 160338Z 17010KT 28/20 A2981 RMK A01 T02760199  RH  063%=      5-min Rain = 0
KCL2 160339Z 17012KT 28/20 A2981 RMK A01 T02750199  RH  063%=      5-min Rain = 0
KCL2 160340Z 17012KT 28/20 A2981 RMK A01 T02750198  RH  063%=      5-min Rain = 0
KCL2 160341Z 17010KT 28/20 A2981 RMK A01 T02750198  RH  063%=      5-min Rain = 0
KCL2 160342Z 17011KT 28/20 A2981 RMK A01 T02750198  RH  063%=      5-min Rain = 0
KCL2 160343Z 17011KT 28/20 A2981 RMK A01 T02750198  RH  063%=      5-min Rain = 0
KCL2 160344Z 17010KT 28/20 A2981 RMK A01 T02750198  RH  063%=      5-min Rain = 0
KCL2 160345Z 17010KT 28/20 A2981 RMK A01 T02750199  RH  063%=      5-min Rain = 0
KCL2 160346Z 17014KT 28/20 A2981 RMK A01 T02750198  RH  063%=      5-min Rain = 0
KCL2 160347Z 17015KT 27/20 A2981 RMK A01 T02740197  RH  063%=      5-min Rain = 0
KCL2 160348Z 17012KT 28/20 A298 RMK A01 T02750198  RH  063%=      5-min Rain = 0
KCL2 160349Z 17013KT 28/20 A2981 RMK A01 T02750198  RH  063%=      5-min Rain = 0
KCL2 160350Z 17012KT 28/20 A2981 RMK A01 T02750198  RH  063%=      5-min Rain = 0
KCL2 160351Z 18014KT 28/20 A2981 RMK A01 T02750198  RH  063%=      5-min Rain = 0
KCL2 160352Z 18015KT 28/20 A2981 RMK A01 T02750197  RH  063%=      5-min Rain = 0
KCL2 160353Z 17014KT 28/20 A2981 RMK A01 T02750197  RH  063%=      5-min Rain = 0
KCL2 160354Z 17011KT 28/20 A2981 RMK A01 T02750197  RH  062%=      5-min Rain = 0
KCL2 160355Z 18013G18KT 28/20 A2981 RMK A01 T02750198  RH  063%=      5-min Rain = 0
KCL2 160356Z 18012KT 28/20 A2981 RMK A01 T02750197  RH  062%=      5-min Rain = 0
KCL2 160357Z 17012G18KT 28/20 A2981 RMK A01 T02750198  RH  063%=      5-min Rain = 0
KCL2 160358Z 17012KT 28/20 A2981 RMK A01 T02750198  RH  063%=      5-min Rain = 0
KCL2 160359Z 18015KT 27/20 A2981 RMK A01 T02740197  RH  063%=      5-min Rain = 0
KCL2 160400Z 18014KT 28/20 A2981 RMK A01 T02750197  RH  062%=      5-min Rain = 0
KCL2 160401Z 17015KT 28/20 A2981 RMK A01 T02750196  RH  062%=      5-min Rain = 0
KCL2 160402Z 17014G19KT 28/20 A2981 RMK A01 T02760197  RH  062%=      5-min Rain = 0
KCL2 160403Z 17014KT 28/20 A2981 RMK A01 T02760197  RH  062%=      5-min Rain = 0
KCL2 160404Z 18014KT 28/20 A2981 RMK A01 T02760197  RH  062%=      5-min Rain = 0
KCL2 160405Z 17013KT 28/20 A2981 RMK A01 T02750197  RH  062%=      5-min Rain = 0
KCL2 160406Z 17013KT 28/20 A2981 RMK A01 T02750197  RH  062%=      5-min Rain = 0
KCL2 160407Z 17013KT 28/20 A2981 RMK A01 T02750197  RH  062%=      5-min Rain = 0
KCL2 160408Z 17014KT 28/20 A2981 RMK A01 T02750197  RH  062%=      5-min Rain = 0
KCL2 160409Z 17012KT 28/20 A2981 RMK A01 T02750196  RH  062%=      5-min Rain = 0
KCL2 160410Z 17013KT 28/20 A2981 RMK A01 T02750196  RH  062%=      5-min Rain = 0
KCL2 160411Z 16015KT 28/20 A2981 RMK A01 T02750196  RH  062%=      5-min Rain = 0
KCL2 160412Z 17012G18KT 28/20 A2981 RMK A01 T02750197  RH  062%=      5-min Rain = 0
KCL2 160413Z 17013KT 28/20 A2981 RMK A01 T02750196  RH  062%=      5-min Rain = 0
KCL2 160414Z 17015KT 28/20 A2981 RMK A01 T02750196  RH  062%=      5-min Rain = 0
KCL2 160415Z 17013KT 28/20 A2981 RMK A01 T02750196  RH  062%=      5-min Rain = 0
KCL2 160416Z 16013KT 28/20 A2981 RMK A01 T02750196  RH  062%=      5-min Rain = 0
KCL2 160417Z 17013KT 28/20 A2981 RMK A01 T02750196  RH  062%=      5-min Rain = 0
KCL2 160418Z 17011KT 28/20 A2981 RMK A01 T02750196  RH  062%=      5-min Rain = 0
KCL2 160419Z 17011KT 27/20 A2981 RMK A01 T02740196  RH  062%=      5-min Rain = 0
KCL2 160420Z 17013G18KT 27/20 A2981 RMK A01 T02740196  RH  063%=      5-min Rain = 0
KCL2 160421Z 16013KT 27/20 A2981 RMK A01 T02740196  RH  063%=      5-min Rain = 0
KCL2 160422Z 17013KT 27/20 A2981 RMK A01 T02740196  RH  062%=      5-min Rain = 0
KCL2 160423Z 17015KT 27/20 A2981 RMK A01 T02740196  RH  062%=      5-min Rain = 0
KCL2 160424Z 17014KT 27/20 A2981 RMK A01 T02740195  RH  062%=      5-min Rain = 0
KCL2 160425Z 17012G17KT 28/20 A2981 RMK A01 T02750195  RH  062%=      5-min Rain = 0
KCL2 160426Z 17011G17KT 28/20 A2981 RMK A01 T02750196  RH  062%=      5-min Rain = 0
KCL2 160427Z 17012KT 28/20 A2982 RMK A01 T02750196  RH  062%=      5-min Rain = 0
KCL2 160428Z 17014KT 28/20 A2982 RMK A01 T02750195  RH  062%=      5-min Rain = 0
KCL2 160429Z 18015KT 28/20 A2982 RMK A01 T02750195  RH  062%=      5-min Rain = 0
KCL2 160430Z 18013KT 28/20 A2982 RMK A01 T02750195  RH  062%=      5-min Rain = 0
KCL2 160431Z 19010KT 28/20 A2983 RMK A01 T02750195  RH  062%=      5-min Rain = 0
KCL2 160432Z 18012G18KT 28/20 A2983 RMK A01 T02750196  RH  062%=      5-min Rain = 0
KCL2 160433Z 18012KT 28/20 A2983 RMK A01 T02750196  RH  062%=      5-min Rain = 0
KCL2 160434Z 19011KT 27/20 A2983 RMK A01 T02740195  RH  062%=      5-min Rain = 0
KCL2 160435Z 19011KT 27/20 A2983 RMK A01 T02740195  RH  062%=      5-min Rain = 0
KCL2 160436Z 19009KT 28/20 A2983 RMK A01 T02750195  RH  062%=      5-min Rain = 0
KCL2 160437Z 18010G15KT 28/20 A2983 RMK A01 T02750196  RH  062%=      5-min Rain = 0
KCL2 160438Z 18011KT 27/20 A2983 RMK A01 T02740195  RH  062%=      5-min Rain = 0
KCL2 160439Z 18010KT 27/20 A2983 RMK A01 T02740195  RH  062%=      5-min Rain = 0
KCL2 160440Z 18012KT 27/20 A2983 RMK A01 T02740195  RH  062%=      5-min Rain = 0
KCL2 160441Z 19011G16KT 27/20 A2983 RMK A01 T02740195  RH  062%=      5-min Rain = 0
KCL2 160442Z 17009KT 27/20 A2983 RMK A01 T02740195  RH  062%=      5-min Rain = 0
KCL2 160443Z 17012KT 27/20 A2983 RMK A01 T02740196  RH  062%=      5-min Rain = 0
KCL2 160444Z 17014KT 27/20 A2982 RMK A01 T02730195  RH  062%=      5-min Rain = 0
KCL2 160445Z 17014KT 27/19 A2982 RMK A01 T02730194  RH  062%=      5-min Rain = 0
KCL2 160446Z 17013KT 27/19 A2982 RMK A01 T02740194  RH  062%=      5-min Rain = 0
KCL2 160447Z 17013G18KT 28/19 A2982 RMK A01 T02750194  RH  061%=      5-min Rain = 0
KCL2 160448Z 17012KT 28/19 A2982 RMK A01 T02750194  RH  061%=      5-min Rain = 0
KCL2 160449Z 17012KT 28/19 A2982 RMK A01 T02750194  RH  061%=      5-min Rain = 0
KCL2 160450Z 17013KT 28/20 A2982 RMK A01 T02750195  RH  062%=      5-min Rain = 0
KCL2 160451Z 17014KT 27/20 A2982 RMK A01 T02740195  RH  062%=      5-min Rain = 0
KCL2 160452Z 17015KT 27/19 A2982 RMK A01 T02740194  RH  062%=      5-min Rain = 0
KCL2 160453Z 17015KT 27/19 A2981 RMK A01 T02740194  RH  062%=      5-min Rain = 0
KCL2 160454Z 17014KT 27/19 A2981 RMK A01 T02740194  RH  061%=      5-min Rain = 0
KCL2 160455Z 17013KT 27/20 A2981 RMK A01 T02740195  RH  062%=      5-min Rain = 0
KCL2 160456Z 17014G19KT 27/19 A2981 RMK A01 T02730194  RH  062%=      5-min Rain = 0
KCL2 160457Z 17016KT 27/19 A2981 RMK A01 T02730194  RH  062%=      5-min Rain = 0
KCL2 160458Z 17015KT 27/19 A2981 RMK A01 T02730193  RH  062%=      5-min Rain = 0
KCL2 160459Z 17013G18KT 27/19 A2981 RMK A01 T02730194  RH  062%=      5-min Rain = 0

Page generated in 0.1219 seconds.